Dados Meteorológicos "Online"
 
  Base de Dados  
 
Dinamização da Estação Meteorológica (na escola)
 
Dados relativos aos últimos 2 meses:
Data/HoraTemperaturaHumi. Rela.PressãoPrecipitaçãoVel.VentoDir.VentoVel.RajadaDir.RajadaRadiação SolarÍndice U.V.
(ºC)(%)(hPa)(mm)(km/h)(km/h)(W / m2)(0-11)
2018-11-14 13:00:0021,859,71013,0011,5SE31,3E4021,5
2018-11-14 12:00:0021,161,81014,008,3E17,6E4221,6
2018-11-14 11:00:0019,571,01014,606,5NE16,9E3671,1
2018-11-14 10:00:0014,597,51015,805,1NE11,6NE2350,5
2018-11-14 09:00:0011,499,91016,401,4NE5,0NE410,1
2018-11-14 08:00:0010,299,81016,302,2NE6,7NE70
2018-11-14 07:00:0010,499,61016,302,6E6,2E00
2018-11-14 06:00:0010,399,31016,301,6E5,3E00
2018-11-14 05:00:0010,499,01016,201,8NE5,0N00
2018-11-14 04:00:0010,898,61016,602,4N5,8N00
2018-11-14 03:00:0011,398,31017,203,2NE7,7E00
2018-11-14 02:00:0011,497,61017,303,1E5,9E00
2018-11-14 01:00:0011,996,81017,502,7NE5,7NW00
2018-11-14 00:00:0012,397,21017,904,6N9,7N00
2018-11-13 23:00:0012,296,61018,303,1NE7,9N00
2018-11-13 22:00:0012,695,51018,402,8NE6,9NE-10
2018-11-13 21:00:0012,795,31018,303,9E7,6NE00
2018-11-13 20:00:0012,994,11017,902,6N10,0N00
2018-11-13 19:00:0013,491,61017,602,6N6,1N00
2018-11-13 18:00:0014,787,61017,202,9W8,0W30
2018-11-13 17:00:0016,479,91016,905,0SW11,2SW190,0
2018-11-13 16:00:0017,873,71016,80,25,7SW11,0SW670,3
2018-11-13 15:00:0018,769,21016,804,2SW14,0SW1170,5
2018-11-13 14:00:0019,664,51016,903,2NE11,2E2711,2
2018-11-13 13:00:0018,967,21017,60,27,5E16,9E4171,7
2018-11-13 12:00:0018,268,51018,009,6NE18,8E4501,6
2018-11-13 11:00:0016,774,91018,308,3E21,5N4001,2
2018-11-13 10:00:0014,085,01019,106,8E16,1NE2570,5
2018-11-13 09:00:0010,996,91019,505,5E12,6NE310,1
2018-11-13 08:00:009,498,91019,205,0NE15,0N130,0
2018-11-13 07:00:008,298,41019,004,0NE10,9NE00,0
2018-11-13 06:00:008,297,51018,502,2N4,3NW00
2018-11-13 05:00:008,896,11018,201,9N4,8NW00
2018-11-13 04:00:009,892,81018,200,6S4,5S00
2018-11-13 03:00:0010,890,11018,405,3NE12,3NE00
2018-11-13 02:00:0010,492,31018,405,7NE17,6NE00
2018-11-13 01:00:009,795,21018,305,9N11,9N00
2018-11-13 00:00:009,994,51018,002,7NW9,8N00
2018-11-12 23:00:0010,592,31017,803,8NW7,9NW00
2018-11-12 22:00:0010,991,71017,602,9N8,8N00
2018-11-12 21:00:0011,590,41016,703,8N6,4NE00
2018-11-12 20:00:0012,287,41015,903,8NW7,5NW00
2018-11-12 19:00:0013,583,31014,906,5NW17,6NW00
2018-11-12 18:00:0015,274,11013,706,9N15,3N30
2018-11-12 17:00:0016,960,71013,207,4N14,5N180,0
2018-11-12 16:00:0017,770,21012,706,7W15,9N1240,2
2018-11-12 15:00:0019,060,51011,907,1NW15,9W2550,8
2018-11-12 14:00:0019,458,11011,606,1NE15,6NE4671,5
2018-11-12 13:00:0017,968,61012,004,9NE11,4NE4641,7
2018-11-12 12:00:0014,593,21012,804,2E15,9N3741,3
2018-11-12 11:00:0013,299,61013,102,9E10,9NE2680,8
2018-11-12 10:00:0012,5100,01013,002,0SE7,7SE1290,3
2018-11-12 09:00:0011,2100,01012,301,5SE6,0SE360,1
2018-11-12 08:00:0011,1100,01011,302,1W6,9W110
2018-11-12 07:00:0011,3100,01010,602,0NW7,0NW00
2018-11-12 06:00:0011,7100,01010,202,8NW8,5NW00
2018-11-12 05:00:0012,3100,01009,805,4W12,4W00
2018-11-12 04:00:0012,5100,01009,405,8W13,8NW00
2018-11-12 03:00:0012,5100,01009,405,9W13,3NW00
2018-11-12 02:00:0013,3100,01009,106,0NW16,9NW00
2018-11-12 01:00:0014,1100,01009,00,26,3W14,1NW00
2018-11-12 00:00:0014,6100,01008,906,0SW16,5SW00
2018-11-11 23:00:0014,7100,01008,808,3SW18,1SW00
2018-11-11 22:00:0015,199,71008,7010,2SW19,7S00
2018-11-11 21:00:0015,199,21008,31,411,1S21,4S00
2018-11-11 20:00:0015,498,21007,9111,0S21,6S00
2018-11-11 19:00:0016,895,71007,91,816,5SW36,5SW00
2018-11-11 18:00:0017,094,11007,70,413,7S32,5S20
2018-11-11 17:00:0017,789,51008,00,213,8S25,4SW290,0
2018-11-11 16:00:0018,288,21008,5014,3S30,3S900,1
2018-11-11 15:00:0019,084,41008,6014,5SW28,8SW1120,4
2018-11-11 14:00:0019,582,51009,1012,3S25,9S2311,0
2018-11-11 13:00:0019,583,01009,7011,7SW25,5SW2401,2
2018-11-11 12:00:0019,384,41010,6011,9S23,6SW2761,3
2018-11-11 11:00:0018,096,41011,508,6SW22,9SW2050,8
2018-11-11 10:00:0017,799,71012,006,7SW18,1S1660,4
2018-11-11 09:00:0016,7100,01012,404,4S13,2S660,1
2018-11-11 08:00:0016,3100,01012,404,3S13,6S170,0
2018-11-11 07:00:0016,3100,01012,203,3SW8,4SW00
2018-11-11 06:00:0016,5100,01012,604,0SW13,8SW00
2018-11-11 05:00:0016,599,91012,806,3SW15,4W00
2018-11-11 04:00:0016,699,71013,106,2W13,6SW00
2018-11-11 03:00:0016,699,51013,407,6SW16,7SW00
2018-11-11 02:00:0016,499,21013,704,4SW11,3SW00
2018-11-11 01:00:0016,198,71014,20,24,9SW10,9SW00
2018-11-11 00:00:0016,398,31014,604,4SW11,9SW00
2018-11-10 23:00:0015,997,21015,20,24,4SW9,4SW00
2018-11-10 22:00:0016,395,11015,005,8SW14,6SW00
2018-11-10 21:00:0016,893,81014,709,3SW18,4W00
2018-11-10 20:00:0016,893,41014,807,9SW18,2SW00
2018-11-10 19:00:0016,893,11014,606,8SW13,5SW00
2018-11-10 18:00:0017,390,81014,607,3SW17,9SW40
2018-11-10 17:00:0018,087,41014,4010,2SW25,1SW340,0
2018-11-10 16:00:0018,685,01014,4010,9SW27,5SW1010,2
2018-11-10 15:00:0019,083,51014,5011,6SW22,7SW1260,5
2018-11-10 14:00:0020,277,61015,0012,7SW28,5SW2941,3
2018-11-10 13:00:0020,177,31015,5012,4SW23,9SW4051,9
2018-11-10 12:00:0018,783,41016,7010,3SW22,6SW2791,5
2018-11-10 11:00:0018,086,91017,508,3SW17,8SW1970,9
2018-11-10 10:00:0016,396,51017,706,7SW18,5SW810,2
2018-11-10 09:00:0015,499,11017,703,4W11,4SW470,0
2018-11-10 08:00:0014,599,51017,504,6W14,0W110
2018-11-10 07:00:0014,499,61017,604,8W12,6SW00
2018-11-10 06:00:0012,699,41017,705,2SW14,8SW00
2018-11-10 05:00:0011,999,01018,001,6E7,4S00
2018-11-10 04:00:0011,398,31018,101,0NE4,1N00
2018-11-10 03:00:0012,097,81018,101,1NW3,9N00
2018-11-10 02:00:0013,297,41018,301,1NW3,5NW00
2018-11-10 01:00:0013,497,61018,901,3SW4,3NW00
2018-11-10 00:00:0012,697,91019,402,3W12,1W00
2018-11-09 23:00:0012,497,61019,902,1NE4,6NE00
2018-11-09 22:00:0012,196,81020,200,8E2,7NE00
2018-11-09 21:00:0012,695,31019,900,9W2,9SE00
2018-11-09 20:00:0013,392,31019,902,3SW5,8SW00
2018-11-09 19:00:0014,388,11019,703,5SW9,6SW00
2018-11-09 18:00:0015,083,51019,406,0SW23,2SW40
2018-11-09 17:00:0016,276,91019,409,4SW20,2SW500,0
2018-11-09 16:00:0017,171,91019,4010,4SW21,1SW670,3
2018-11-09 15:00:0017,868,41019,5010,6SW25,2SW2731,0
2018-11-09 14:00:0018,764,81019,9010,9SW19,9SW4391,8
2018-11-09 13:00:0018,465,71020,809,1SW17,2S4722,1
2018-11-09 12:00:0017,969,61021,707,2S15,2S4722,0
2018-11-09 11:00:0014,391,41022,202,9S9,4S4061,4
2018-11-09 10:00:0011,098,51022,802,6E5,4E2560,6
2018-11-09 09:00:008,999,71023,102,8E6,0E440,1
2018-11-09 08:00:007,799,61022,702,8E7,4E180,0
2018-11-09 07:00:007,599,31022,102,4E5,4E00
2018-11-09 06:00:007,799,01021,701,4NE4,5NE00
2018-11-09 05:00:008,198,71021,102,2N4,8N00
2018-11-09 04:00:008,598,31020,802,4NW6,8NW00
2018-11-09 03:00:009,097,71020,600,7NW3,0NW00
2018-11-09 02:00:009,896,71020,20,21,4NW4,2N00
2018-11-09 01:00:0010,495,11020,30,45,1N21,2N00
2018-11-09 00:00:009,792,71020,001,1NE3,2N00
2018-11-08 23:00:0010,587,31019,601,1NW10,0S-10
2018-11-08 22:00:0011,386,01019,005,8N12,9NW00
2018-11-08 21:00:0012,183,11018,204,8NW10,7NW00
2018-11-08 20:00:0013,580,31017,305,1NW16,6NW00
2018-11-08 19:00:0014,680,81016,108,2NW22,4NW00
2018-11-08 18:00:0015,583,51014,908,5W23,2W40
2018-11-08 17:00:0016,578,11014,2013,2W29,4W510,0
2018-11-08 16:00:0016,579,71013,6010,4W27,8W740,2
2018-11-08 15:00:0016,881,41013,30,410,7W43,0W1090,3
2018-11-08 14:00:0020,862,11013,0015,9W32,4W4511,6
2018-11-08 13:00:0018,680,51013,8010,9W27,5NW4942,0
2018-11-08 12:00:0017,097,31014,708,3SW20,1W4041,6
2018-11-08 11:00:0015,499,31015,503,7W14,2W2951,1
2018-11-08 10:00:0014,399,51015,702,3E8,0SE1020,3
2018-11-08 09:00:0013,799,41015,702,0E5,3E640,0
2018-11-08 08:00:0013,599,21015,103,0NE6,3NE160,0
2018-11-08 07:00:0013,298,61015,10,82,6S10,0SW00
2018-11-08 06:00:0013,297,61014,90,42,3NE6,7N00
2018-11-08 05:00:0013,095,91014,80,41,3E4,0N00
2018-11-08 04:00:0012,893,81015,101,9SE4,3E00
2018-11-08 03:00:0012,393,51015,401,9E6,8E00
2018-11-08 02:00:0012,093,71015,902,0E6,8E00
2018-11-08 01:00:0011,992,51016,402,4E6,8E00
2018-11-08 00:00:0012,092,71016,801,1E3,0E00
2018-11-07 23:00:0011,792,71016,802,0E6,8E00
2018-11-07 22:00:0012,092,31016,701,8N6,9NW00
2018-11-07 21:00:0011,891,31016,302,5N6,4N00
2018-11-07 20:00:0012,487,61015,902,4NW6,9W00
2018-11-07 19:00:0013,382,31015,404,1W9,3W00
2018-11-07 18:00:0015,373,41014,804,3W10,2NW40
2018-11-07 17:00:0017,265,81014,305,3NW12,4NW270,0
2018-11-07 16:00:0017,874,41014,005,9SW18,6S660,4
2018-11-07 15:00:0019,078,21014,1010,2SW21,5SW3441,2
2018-11-07 14:00:0018,679,11014,6010,9SW25,2SW4301,7
2018-11-07 13:00:0017,981,51014,8010,4SW22,0SW3762,0
2018-11-07 12:00:0016,987,11015,209,0S15,8SW3661,7
2018-11-07 11:00:0015,894,81015,407,6SW15,3S3711,4
2018-11-07 10:00:0014,698,31014,904,4SW10,3SW2520,7
2018-11-07 09:00:0013,799,11014,601,8SW5,1SW750,1
2018-11-07 08:00:0013,098,81013,60,21,9S4,8SW140
2018-11-07 07:00:0013,397,81013,00,28,3NW22,6NW00
2018-11-07 06:00:0015,096,61012,11,210,8W28,1N00
2018-11-07 05:00:0015,591,31011,90,213,6SW30,7W00
2018-11-07 04:00:0015,690,21011,809,8SW23,7SW00
2018-11-07 03:00:0015,590,41012,3011,0SW22,4SW00
2018-11-07 02:00:0014,992,81012,709,7SW23,4SW00
2018-11-07 01:00:0014,594,11012,808,6SW18,2SW00
2018-11-07 00:00:0013,997,01013,008,4S20,7SW00
2018-11-06 23:00:0013,996,61013,606,0S14,8SW00
2018-11-06 22:00:0014,096,11013,806,3SW24,8W00
2018-11-06 21:00:0014,593,61013,80,44,6W12,4SW00
2018-11-06 20:00:0014,390,81013,305,7SW13,3SW00
2018-11-06 19:00:0015,387,11013,008,4SW27,4W00
2018-11-06 18:00:0015,583,51012,906,3SW19,1SW60
2018-11-06 17:00:0016,477,91013,008,2SW16,8SW390,0
2018-11-06 16:00:0016,774,11013,0011,5SW21,0SW700,4
2018-11-06 15:00:0018,270,31012,9011,8SW23,5SW3321,2
2018-11-06 14:00:0018,370,01013,6012,6SW23,8S3051,5
2018-11-06 13:00:0018,370,51014,4011,9SW26,4SW5112,4
2018-11-06 12:00:0017,178,61015,609,4S18,8S5022,3
2018-11-06 11:00:0014,097,01016,103,9S10,0S3481,4
2018-11-06 10:00:0011,099,41016,802,6E6,1E2590,7
2018-11-06 09:00:008,5100,01016,702,4E6,3E420,1
2018-11-06 08:00:007,2100,01016,402,3E7,3E190,0
2018-11-06 07:00:007,1100,01015,802,2E5,0E00
2018-11-06 06:00:007,5100,01015,602,2E6,9E00
2018-11-06 05:00:007,799,71015,202,2E4,6E00
2018-11-06 04:00:008,299,61014,802,8E6,3E00
2018-11-06 03:00:008,499,31015,001,7NE12,9E00
2018-11-06 02:00:009,199,11014,802,3W7,4W00
2018-11-06 01:00:009,298,81015,00,22,2W13,2SW00
2018-11-06 00:00:009,398,21014,901,4W6,1W00
2018-11-05 23:00:009,797,61014,701,4W4,7W00
2018-11-05 22:00:0010,396,31014,203,8W11,1W00
2018-11-05 21:00:0010,193,31013,40,63,0NW10,4NW00
2018-11-05 20:00:0010,989,31012,905,2NW15,1W00
2018-11-05 19:00:0011,982,21011,906,3NW14,3NW00
2018-11-05 18:00:0013,275,21011,00,27,5NW18,3W40
2018-11-05 17:00:0014,466,01010,3010,5NW24,0NW210,0
2018-11-05 16:00:0015,163,71009,7013,5NW38,4NW630,3
2018-11-05 15:00:0016,857,41009,2015,5NW31,8NW3571,1
2018-11-05 14:00:0017,056,11009,4014,3NW33,3NW3851,6
2018-11-05 13:00:0017,256,81009,5014,3NW35,5NW4691,8
2018-11-05 12:00:0016,261,01009,8012,2NW29,3NW4501,7
2018-11-05 11:00:0016,163,21009,7013,2NW34,3NW3921,1
2018-11-05 10:00:0012,789,31009,80,211,4NW25,7N2640,6
2018-11-05 09:00:0010,499,31009,604,6NW21,8N600,1
2018-11-05 08:00:009,599,11009,003,5NW10,7NW180,0
2018-11-05 07:00:009,598,61008,304,6W13,2NW00
2018-11-05 06:00:009,497,11007,805,1W10,7W00
2018-11-05 05:00:009,996,21007,308,8NW31,4NW00
2018-11-05 04:00:0011,199,41006,9010,1NW34,5NW00
2018-11-05 03:00:0012,099,61006,707,5NW22,4NW00
2018-11-05 02:00:0012,799,51006,50,26,4NW18,2W00
2018-11-05 01:00:0012,799,41006,40,210,1NW24,6NW00
2018-11-05 00:00:0013,799,21006,30,412,9NW37,3NW00
2018-11-04 23:00:0015,199,01006,50,812,1W37,0NW00
2018-11-04 22:00:0015,798,51007,21,215,3SW28,1SW00
2018-11-04 21:00:0015,695,61007,81,413,7SW28,7SW00
2018-11-04 20:00:0016,088,91008,4011,8SW30,0W00
2018-11-04 19:00:0016,184,11009,1010,2SW25,6W00
2018-11-04 18:00:0016,082,91009,508,2SW21,0SW20
2018-11-04 17:00:0016,580,31009,805,8SW14,8SW380,0
2018-11-04 16:00:0016,478,51010,206,2SW14,7SW780,1
2018-11-04 15:00:0016,674,91010,906,9SW16,8SW1140,4
2018-11-04 14:00:0016,673,21011,706,8SW14,9S1650,9
2018-11-04 13:00:0017,172,11012,805,9S15,2S2321,3
2018-11-04 12:00:0016,477,61014,305,1S12,5SE2711,5
2018-11-04 11:00:0013,896,71015,503,0S7,2SW1830,8
2018-11-04 10:00:0012,599,91015,902,0S7,0SE1040,4
2018-11-04 09:00:0011,3100,01016,101,5NW4,7NW500,0
2018-11-04 08:00:009,4100,01016,201,6NE4,3E330,0
2018-11-04 07:00:008,899,91015,701,4NE4,1E00
2018-11-04 06:00:009,199,81015,602,4SE5,0SE00
2018-11-04 05:00:009,199,61015,201,5W4,9W00
2018-11-04 04:00:009,699,41015,200,7W8,1NW00
2018-11-04 03:00:0010,199,31015,900,3NE2,9NW00
2018-11-04 02:00:0010,398,91016,300,7NW4,1NW00
2018-11-04 01:00:0011,098,81016,802,3N5,7NW00
2018-11-04 00:00:0011,298,21017,402,1NW5,1N00
2018-11-03 23:00:0011,997,71017,702,5N7,6NW00
2018-11-03 22:00:0012,296,61017,702,4NW7,5NW00
2018-11-03 21:00:0012,895,21017,503,5NW7,8W00
2018-11-03 20:00:0013,693,11017,203,7W8,3W00
2018-11-03 19:00:0014,689,21016,703,6NW11,2NW00
2018-11-03 18:00:0016,383,11016,204,8NW12,6NW40
2018-11-03 17:00:0018,173,31016,005,8W13,2NW180,1
2018-11-03 16:00:0018,868,11016,308,0SW15,4SW340,4
2018-11-03 15:00:0021,062,41016,508,4SW15,2SW3641,4
2018-11-03 14:00:0022,259,51017,306,5S15,6S4862,2
2018-11-03 13:00:0021,560,61018,104,5SE10,2SE5182,6
2018-11-03 12:00:0020,464,91019,103,9E8,8SE5012,4
2018-11-03 11:00:0018,671,61019,606,0NE14,8N4351,7
2018-11-03 10:00:0016,280,51020,308,9N16,8N2590,8
2018-11-03 09:00:0013,193,61020,605,8N14,9N560,2
2018-11-03 08:00:0010,997,21020,403,0NW7,7NW260,0
2018-11-03 07:00:0011,096,61020,103,5NW12,7N10
2018-11-03 06:00:0011,397,51020,605,1NE12,0N00
2018-11-03 05:00:0011,396,51020,203,6N6,4N00
2018-11-03 04:00:0012,095,91020,503,2NW9,5NW00
2018-11-03 03:00:0012,395,31021,001,8N5,7N00
2018-11-03 02:00:0012,895,41021,403,1N12,1NW00
2018-11-03 01:00:0013,495,51021,803,3NW9,7NW00
2018-11-03 00:00:0013,896,21022,102,4NW7,9NW00
2018-11-02 23:00:0014,296,01022,302,5E7,2NE00
2018-11-02 22:00:0014,594,61022,102,8W9,0W00
2018-11-02 21:00:0015,291,91021,803,9W14,1NW00
2018-11-02 20:00:0016,189,01021,406,9NW19,2NW00
2018-11-02 19:00:0016,686,61021,208,7W19,2NW00
2018-11-02 18:00:0017,483,41021,007,9NW19,3NW60
2018-11-02 17:00:0018,877,41020,807,7NW17,5NW460,0
2018-11-02 16:00:0019,573,71020,5012,4NW24,0NW1100,4
2018-11-02 15:00:0021,167,11020,5016,1NW28,8N3751,3
2018-11-02 14:00:0022,162,61020,9012,8NW23,6NW5152,2
2018-11-02 13:00:0021,065,31021,7011,2N29,2N3902,1
2018-11-02 12:00:0020,963,41022,605,2SE18,9N4362,1
2018-11-02 11:00:0019,667,31023,105,9SE11,8SE4281,7
2018-11-02 10:00:0017,278,51023,504,8SE10,6S2630,9
2018-11-02 09:00:0014,693,91023,303,2E7,2N770,2
2018-11-02 08:00:0013,297,91022,802,1NE9,5SE220,0
2018-11-02 07:00:0012,497,91022,502,2NE7,6E00
2018-11-02 06:00:0011,597,21022,302,0E10,2SE00
2018-11-02 05:00:0011,795,51021,801,6NE5,0E00
2018-11-02 04:00:0012,394,71021,901,6E4,9E00
2018-11-02 03:00:0012,096,51022,201,5SE5,2S00
2018-11-02 02:00:0011,597,11022,502,4E5,3N00
2018-11-02 01:00:0011,595,21022,102,6SW6,1SW00
2018-11-02 00:00:0012,792,11022,002,4W8,8NW00
2018-11-01 23:00:0013,391,71021,805,3SW12,5W00
2018-11-01 22:00:0013,789,01021,005,4NW16,8W00
2018-11-01 21:00:0014,386,51020,308,9NW18,3NW00
2018-11-01 20:00:0014,584,71019,9013,0NW27,5NW00
2018-11-01 19:00:0014,482,11019,209,8NW24,7N00
2018-11-01 18:00:0015,475,21018,208,7NW19,5NW40
2018-11-01 17:00:0016,868,21017,6011,7NW26,6N200,1
2018-11-01 16:00:0018,164,11017,109,6W26,0N1040,4
2018-11-01 15:00:0018,762,71017,009,4S24,2S4511,4
2018-11-01 14:00:0019,358,31016,908,3SW14,8SW4962,2
2018-11-01 13:00:0018,861,81017,207,0SW14,3SW5012,4
2018-11-01 12:00:0017,567,91017,705,3SW11,7S4802,2
2018-11-01 11:00:0015,977,71017,605,4SW12,1SW4431,6
2018-11-01 10:00:0011,898,01017,604,9NE13,0NE2760,8
2018-11-01 09:00:0010,5100,01016,803,5E12,2N440,1
2018-11-01 08:00:009,2100,01016,002,4SE8,3N220,0
2018-11-01 07:00:008,9100,01014,702,5NW5,3NW10
2018-11-01 06:00:009,6100,01013,602,8N10,0NE00
2018-11-01 05:00:0010,2100,01012,507,2NE15,7NE00
2018-11-01 04:00:0010,5100,01011,604,6NE10,3NE00
2018-11-01 03:00:0011,3100,01010,905,3NE12,2NE00
2018-11-01 02:00:0011,7100,01010,303,1NE6,9E00
2018-11-01 01:00:0011,6100,01009,503,4NW11,1N00
2018-11-01 00:00:0011,7100,01008,704,7NW12,4NW00
2018-10-31 23:00:0012,3100,01007,507,8NW19,5NW00
2018-10-31 22:00:0012,5100,01006,603,7NW19,5N00
2018-10-31 21:00:0012,8100,01005,207,1NW18,8NW00
2018-10-31 20:00:0013,2100,01004,3011,9NW27,5NW00
2018-10-31 19:00:0013,8100,01003,409,2NW22,9NW00
2018-10-31 18:00:0013,9100,01002,509,0NW27,1NW30
2018-10-31 17:00:0014,4100,01001,7011,5NW44,9NW170,0
2018-10-31 16:00:0015,2100,01001,20,212,6NW34,0NW880,2
2018-10-31 15:00:0015,099,91001,20,28,0N17,2N2250,8
2018-10-31 14:00:0014,2100,01001,73,28,5N24,4N1790,7
2018-10-31 13:00:0013,0100,01003,21,414,7S33,1S850,4
2018-10-31 12:00:0011,6100,01005,65,611,1SE24,4S770,3
2018-10-31 11:00:0011,1100,01007,226,2E18,4E300,0
2018-10-31 10:00:0010,3100,01008,62,44,8E9,9E550,1
2018-10-31 09:00:0010,2100,01009,233,8NE9,6E80
2018-10-31 08:00:0010,2100,01008,50,81,7E6,2E30
2018-10-31 07:00:009,5100,01008,702,6SW8,2S00
2018-10-31 06:00:008,899,91009,202,6SW8,5SW00
2018-10-31 05:00:008,899,81009,102,0W11,9NW00
2018-10-31 04:00:009,199,51009,20,25,1W21,5N00
2018-10-31 03:00:008,999,61009,20,25,5NW26,3N00
2018-10-31 02:00:008,799,21009,005,3W13,9NW00
2018-10-31 01:00:008,999,01009,016,0W15,2W00
2018-10-31 00:00:008,498,71009,00,63,4W12,9NW00
2018-10-30 23:00:009,198,01008,80,46,0NW19,2N00
2018-10-30 22:00:009,197,81008,30,25,4W18,7W00
2018-10-30 21:00:009,096,41007,603,7NW10,2W00
2018-10-30 20:00:009,293,41006,91,47,6NW20,5N00
2018-10-30 19:00:0010,585,01005,817,8NW45,0N00
2018-10-30 18:00:0011,976,01004,608,2N35,4N80
2018-10-30 17:00:0012,975,01003,7012,1N32,9NW670,0
2018-10-30 16:00:0013,669,21002,80,619,2NW48,0N1270,2
2018-10-30 15:00:0015,363,11002,5016,3NW38,6W3581,0
2018-10-30 14:00:0013,877,31002,6017,6NW39,3N5001,5
2018-10-30 13:00:0013,379,91002,71,615,2NW40,9NW4091,4
2018-10-30 12:00:0011,492,71003,0012,7NW32,1NW2340,8
2018-10-30 11:00:0011,996,71002,70,212,8NW37,7N2150,7
2018-10-30 10:00:0012,098,21002,10,217,3NW38,5N2110,5
2018-10-30 09:00:0012,599,31001,409,8NW28,1NW770,1
2018-10-30 08:00:0012,399,41001,10,210,1NW31,5W120,0
2018-10-30 07:00:0012,499,21000,90,46,5W24,9W00
2018-10-30 06:00:0012,298,81001,51,611,1W27,3W00
2018-10-30 05:00:0014,098,21001,86,218,5W44,7W00
2018-10-30 04:00:0014,297,91002,51,420,1SW46,5SW00
2018-10-30 03:00:0013,496,41004,05,616,1SW36,9W00
2018-10-30 02:00:0013,594,31005,40,813,6SW42,7SW00
2018-10-30 01:00:0013,790,11006,80,612,0SW28,1SW00
2018-10-30 00:00:0013,387,01008,008,9SW23,3SW00
2018-10-29 23:00:0013,483,21009,10,48,7W29,7SW00
2018-10-29 22:00:0012,483,91009,704,9SW11,7W00
2018-10-29 21:00:0012,283,21010,102,7W9,7NW00
2018-10-29 20:00:0013,171,91010,405,6NW15,2NW00
2018-10-29 19:00:0012,967,51010,204,3W13,9W00
2018-10-29 18:00:0014,163,71009,909,5W22,6NW140
2018-10-29 17:00:0014,561,31009,8010,5NW27,1NW430,0
2018-10-29 16:00:0015,754,41009,6014,4NW29,9N930,3
2018-10-29 15:00:0017,246,51009,6015,5NW34,0N3301,2
2018-10-29 14:00:0018,641,81010,1015,3NW37,6NW5482,1
2018-10-29 13:00:0017,746,11011,1015,3NW35,7NW5112,2
2018-10-29 12:00:0017,145,91011,7016,6NW39,3N5372,1
2018-10-29 11:00:0015,950,31012,2017,7N34,8NW4651,6
2018-10-29 10:00:0014,050,31013,00,218,1N31,2N3350,8
2018-10-29 09:00:0011,857,81013,20,213,9N27,8N540,1
2018-10-29 08:00:0010,169,21012,706,8N14,2NE320,0
2018-10-29 07:00:009,571,91012,208,4N19,8N10
2018-10-29 06:00:009,968,51011,904,4NW13,4NW00
2018-10-29 05:00:0010,070,81011,909,0NW24,8NW00
2018-10-29 04:00:009,173,11011,705,9W16,2NW00
2018-10-29 03:00:008,874,41011,504,3W10,9NW00
2018-10-29 02:00:009,270,11011,303,9SW9,9SW00
2018-10-29 01:00:009,868,21011,303,1N19,6N00
2018-10-29 00:00:0010,764,21011,105,2NE21,8N00
2018-10-28 23:00:0010,963,41010,907,7N22,0N00
2018-10-28 22:00:0011,459,91010,109,1N25,3N00
2018-10-28 21:00:0011,956,71009,2018,2N52,1N00
2018-10-28 20:00:0012,156,81008,8021,2N41,1N00
2018-10-28 19:00:0012,655,21008,2020,2N37,6N00
2018-10-28 18:00:0013,354,31007,4021,9N36,9N00
2018-10-28 17:00:0014,151,71006,3021,7NW50,5NW00,0
2018-10-28 16:00:0014,948,01005,5023,6NW52,6NW130,3
2018-10-28 15:00:0016,443,31004,7024,3NW53,9NW4081,2
2018-10-28 14:00:0016,743,51004,9025,9N48,7N5311,8
2018-10-28 13:00:0016,538,91005,2020,5N40,4NW5682,1
2018-10-28 12:00:0015,241,91005,7021,7N39,0N5451,9
2018-10-28 11:00:0013,946,31006,1020,1N40,0NW4821,3
2018-10-28 10:00:0011,952,41006,7021,9N43,7NW3560,7
2018-10-28 09:00:0010,458,41006,6019,0N42,8N590,1
2018-10-28 08:00:009,267,21006,6011,6N24,8N350,0
2018-10-28 07:00:009,274,51006,2010,7N27,0N10
2018-10-28 06:00:009,283,01006,007,3NW16,2N00
2018-10-28 05:00:008,987,81006,009,2N17,8N00
2018-10-28 04:00:009,192,91005,706,2NW17,0NW00
2018-10-28 03:00:0011,078,41006,20,611,5N29,8N00
2018-10-28 02:00:0012,068,21006,4011,1N26,4NW00
2018-10-28 02:00:0012,173,41006,809,8NW27,4NW-10
2018-10-28 01:00:0012,671,31007,7012,2NW27,0NW00
2018-10-28 00:00:0013,262,11008,3014,5NW34,9NW00
2018-10-27 23:00:0013,261,41008,6014,3NW30,5N00
2018-10-27 22:00:0013,754,31008,6020,7N50,5NW00
2018-10-27 21:00:0014,054,71008,2021,9N48,0N00
2018-10-27 20:00:0014,551,71007,5023,3N49,3N00
2018-10-27 19:00:0015,347,41007,0022,2N46,6N140
2018-10-27 18:00:0016,642,81006,8019,9N41,0N630,1
2018-10-27 17:00:0017,741,61006,3023,9NW49,5NW650,4
2018-10-27 16:00:0019,242,71006,2027,3NW50,0N4261,4
2018-10-27 15:00:0020,147,41006,8022,9NW47,1NW5532,2
2018-10-27 14:00:0019,758,21007,4018,8NW34,7N5792,6
2018-10-27 13:00:0019,068,91008,7016,4NW34,1N4592,2
2018-10-27 12:00:0017,384,81009,4016,2NW38,8NW3821,5
2018-10-27 11:00:0015,399,21009,8011,8NW26,2N1970,6
2018-10-27 10:00:0014,5100,01010,104,5NW14,1NW670,2
2018-10-27 09:00:0013,2100,01010,10,24,5N11,9N440,0
2018-10-27 08:00:0013,4100,01009,607,3NW19,3NW00
2018-10-27 07:00:0013,0100,01009,704,4W12,0W00
2018-10-27 06:00:0013,1100,01009,803,0N7,7N00
2018-10-27 05:00:0013,2100,01009,704,4NW9,7NW00
2018-10-27 04:00:0013,6100,01009,805,0NW12,4NW00
2018-10-27 03:00:0013,9100,01010,004,7NW14,8NW00
2018-10-27 02:00:0014,599,91010,004,4NW11,4NW00
2018-10-27 01:00:0015,299,81010,202,9NW10,6NW00
2018-10-27 00:00:0016,099,61010,302,4NW8,5W00
2018-10-26 23:00:0016,499,41010,503,6N8,4NE00
2018-10-26 22:00:0016,798,91010,303,7N6,8N00
2018-10-26 21:00:0017,098,31010,102,3NW5,3N00
2018-10-26 20:00:0017,297,31010,102,7E6,4E00
2018-10-26 19:00:0017,595,21009,71,23,8NE12,3E80
2018-10-26 18:00:0018,091,81009,60,43,8N13,9N380,0
2018-10-26 17:00:0019,089,21009,605,7NE13,1N550,1
2018-10-26 16:00:0019,491,31009,60,45,4E17,4E690,1
2018-10-26 15:00:0020,683,51009,70,211,5SE22,3SE1260,8
2018-10-26 14:00:0021,681,81010,1010,8S21,0S3642,1
2018-10-26 13:00:0021,182,91011,007,9S18,1SE2681,6
2018-10-26 12:00:0019,291,61011,706,1SE12,3S1600,7
2018-10-26 11:00:0018,097,91011,704,5E11,2SE700,2
2018-10-26 10:00:0017,398,71011,602,6N7,1E230,0
2018-10-26 09:00:0016,798,71011,302,5N6,2NE60
2018-10-26 08:00:0016,598,81011,00,22,5NE9,5NE00
2018-10-26 07:00:0016,598,81011,101,7NE7,0E00
2018-10-26 06:00:0016,699,01011,002,5NE6,7E00
2018-10-26 05:00:0016,499,01011,002,2E6,1NE00
2018-10-26 04:00:0016,698,91011,702,3NE5,4NE00
2018-10-26 03:00:0016,698,71012,201,6E4,0NE00
2018-10-26 02:00:0017,098,51012,401,2NE3,5NE00
2018-10-26 01:00:0017,298,21012,402,6E9,9E00
2018-10-26 00:00:0017,497,71012,901,6NE7,5E00
2018-10-25 23:00:0017,997,01012,901,2NE3,8SE00
2018-10-25 22:00:0018,395,71012,902,3E5,2E00
2018-10-25 21:00:0019,094,11012,901,2N3,5NE00
2018-10-25 20:00:0019,592,11013,002,4S8,3SW00
2018-10-25 19:00:0020,288,61012,503,3S7,5S120
2018-10-25 18:00:0021,284,01012,603,0SW9,2SW460,0
2018-10-25 17:00:0021,782,21012,903,8S13,4S1280,4
2018-10-25 16:00:0022,278,21012,908,4S16,1S2151,0
2018-10-25 15:00:0022,475,41013,407,7S14,0SE2181,3
2018-10-25 14:00:0022,970,51014,106,2S13,8S2731,8
2018-10-25 13:00:0023,265,71014,906,3S12,9S2591,7
2018-10-25 12:00:0023,666,71015,406,4S19,6SW3651,7
2018-10-25 11:00:0020,080,01016,001,6SE7,5SE3371,1
2018-10-25 10:00:0016,197,11016,101,5E11,6E880,2
2018-10-25 09:00:0014,598,51016,201,4NE4,7NE490,0
2018-10-25 08:00:0014,698,31015,902,4E7,1NE10
2018-10-25 07:00:0014,598,01015,702,8E7,0NE00
2018-10-25 06:00:0014,597,51015,702,8E5,7E00
2018-10-25 05:00:0014,596,71015,602,2E4,0E00
2018-10-25 04:00:0014,895,91015,802,3N3,7E00
2018-10-25 03:00:0015,194,51016,402,1NE5,9NE00
2018-10-25 02:00:0015,793,21017,001,7E4,3E00
2018-10-25 01:00:0016,192,31017,302,4E4,7NE00
2018-10-25 00:00:0016,690,61017,402,7NE4,6NE-10
2018-10-24 23:00:0017,387,41017,503,0NE6,6NW00
2018-10-24 22:00:0018,383,51017,103,6NW10,1NW00
2018-10-24 21:00:0018,883,01017,105,3NW11,9NW00
2018-10-24 20:00:0019,576,21017,103,7NW10,3NW00
2018-10-24 19:00:0021,066,21017,203,5W8,5W110,0
2018-10-24 18:00:0022,166,61017,203,9SW9,4S390,1
2018-10-24 17:00:0022,966,01017,305,1SW12,4S770,6
2018-10-24 16:00:0024,863,71017,709,2S27,7S3901,7
2018-10-24 15:00:0025,165,41018,009,6S21,2S4892,6
2018-10-24 14:00:0024,866,61018,5011,1S19,6S5172,9
2018-10-24 13:00:0024,866,61019,409,4S16,0S4972,7
2018-10-24 12:00:0024,565,51019,907,8E15,5E4412,0
2018-10-24 11:00:0021,677,61020,306,6E18,3E3271,1
2018-10-24 10:00:0017,994,51020,704,7NE13,0E820,3
2018-10-24 09:00:0016,198,41020,602,5E6,7E630,0
2018-10-24 08:00:0015,798,21020,403,2E5,9NE10
2018-10-24 07:00:0015,797,61020,103,2N7,1N00
2018-10-24 06:00:0016,496,91020,101,7E9,3E00
2018-10-24 05:00:0016,996,31019,904,0NE9,3E00
2018-10-24 04:00:0017,495,11019,904,0E7,7NE00
2018-10-24 03:00:0018,094,11020,103,7E8,1NE00
2018-10-24 02:00:0018,493,81020,403,3E6,6E00
2018-10-24 01:00:0018,692,71020,402,5E5,2E00
2018-10-24 00:00:0018,991,51020,403,0E11,3E-10
2018-10-23 23:00:0019,090,51020,404,4E8,3NE-10
2018-10-23 22:00:0019,190,61020,205,1E11,1E00
2018-10-23 21:00:0019,589,51019,905,3E11,9E00
2018-10-23 20:00:0020,187,81019,407,1E15,0E-10
2018-10-23 19:00:0021,084,41018,8010,0SE18,3E130,0
2018-10-23 18:00:0021,881,31018,5010,7SE21,7E650,1
2018-10-23 17:00:0022,777,71018,4013,2SE23,5SE1380,6
2018-10-23 16:00:0023,574,61018,3015,2SE30,5SE3371,5
2018-10-23 15:00:0023,674,91018,4013,0SE31,6SE3121,9
2018-10-23 14:00:0022,480,71018,809,1SE19,1E2341,5
2018-10-23 13:00:0021,787,31019,406,7E14,5E1881,2
2018-10-23 12:00:0020,788,61019,604,0E10,3E1500,8
2018-10-23 11:00:0017,996,51019,804,5E10,1E2040,7
2018-10-23 10:00:0015,699,31019,603,7E9,7E460,1
2018-10-23 09:00:0015,099,41018,902,7E6,6E140,0
2018-10-23 08:00:0015,299,31018,402,2E5,6E00
2018-10-23 07:00:0015,299,21018,102,4E6,4E00
2018-10-23 06:00:0015,399,01017,602,4E10,6E00
2018-10-23 05:00:0015,698,81017,202,0N4,5E00
2018-10-23 04:00:0016,198,61017,001,4E3,8NE00
2018-10-23 03:00:0016,298,41016,901,6NE7,1NE00
2018-10-23 02:00:0016,398,11017,101,3E10,1NE00
2018-10-23 01:00:0016,597,81017,202,5NE8,3NE00
2018-10-23 00:00:0016,597,21017,702,8NE6,0NE00
2018-10-22 23:00:0016,996,41017,501,8E4,2NE00
2018-10-22 22:00:0017,695,41016,802,0N13,0N00
2018-10-22 21:00:0018,193,81016,201,8N6,6N00
2018-10-22 20:00:0019,389,71015,901,9W5,8SW00
2018-10-22 19:00:0020,880,91015,303,9S8,2SW120,0
2018-10-22 18:00:0021,380,41015,102,9N9,3SW500,1
2018-10-22 17:00:0022,178,31014,906,9S17,1S1090,6
2018-10-22 16:00:0024,368,61015,108,9S21,3S4351,8
2018-10-22 15:00:0024,765,11015,409,4S20,5S5162,6
2018-10-22 14:00:0024,565,41016,009,5S20,3S5453,0
2018-10-22 13:00:0024,464,81016,809,5S20,2S4952,6
2018-10-22 12:00:0023,271,01017,106,8E14,1E4322,0
2018-10-22 11:00:0019,190,61017,305,1E12,5E3401,1
2018-10-22 10:00:0015,798,91017,701,6E5,8E1050,3
2018-10-22 09:00:0013,999,31017,30,23,5E9,0E580,0
2018-10-22 08:00:0013,499,11016,703,4E5,8E20
2018-10-22 07:00:0013,899,01016,502,7E5,9NE00
2018-10-22 06:00:0014,198,81016,503,2E6,9E00
2018-10-22 05:00:0014,398,61016,303,6E8,0E00
2018-10-22 04:00:0014,598,21016,403,0E6,9E00
2018-10-22 03:00:0015,098,01016,303,6E10,5SE00
2018-10-22 02:00:0015,597,71016,201,9NE7,8E00
2018-10-22 01:00:0015,697,21016,003,1NE7,4NE00
2018-10-22 00:00:0016,296,71015,902,6E8,5SE00
2018-10-21 23:00:0016,696,01015,502,1N4,8E00
2018-10-21 22:00:0016,895,41015,203,3E6,9E00
2018-10-21 21:00:0016,793,81014,703,4E6,5E00
2018-10-21 20:00:0017,491,41014,003,7SE6,4SE00
2018-10-21 19:00:0018,387,81013,304,6SE9,9S80,0
2018-10-21 18:00:0019,685,21013,00,28,3SE21,2SE630,1
2018-10-21 17:00:0020,576,41012,8013,4SE25,2SE1380,6
2018-10-21 16:00:0020,981,01012,70,610,4SE25,7S2000,8
2018-10-21 15:00:0023,663,41012,7011,5S21,6SE5532,7
2018-10-21 14:00:0022,968,11013,009,9S17,6S5713,1
2018-10-21 13:00:0021,578,21013,308,2S17,0S4252,4
2018-10-21 12:00:0019,492,61013,307,0S16,2SE4301,9
2018-10-21 11:00:0017,597,81013,703,2NE7,5SE3591,0
2018-10-21 10:00:0016,098,01013,705,2E12,2E830,2
2018-10-21 09:00:0015,597,81013,30,26,7E12,0E500,0
2018-10-21 08:00:0015,096,71012,80,47,9E16,5E10
2018-10-21 07:00:0014,994,91012,80,64,2E8,3E00
2018-10-21 06:00:0014,991,21012,60,42,8NE6,3NE-10
2018-10-21 05:00:0014,988,21012,704,1NE9,5NE-10
2018-10-21 04:00:0014,388,91013,003,8NE10,1NE-10
2018-10-21 03:00:0013,789,21013,203,9NE8,4NE-10
2018-10-21 02:00:0013,690,61013,202,5NE5,0E-10
2018-10-21 01:00:0014,087,91013,102,1E11,4E-10
2018-10-21 00:00:0014,786,31013,202,7NE7,2NE00
2018-10-20 23:00:0015,185,01013,001,9NE6,0E00
2018-10-20 22:00:0015,383,21012,302,7NE7,7E00
2018-10-20 21:00:0015,980,11012,103,6E7,8E-10
2018-10-20 20:00:0016,675,41011,704,9NE14,2NE00
2018-10-20 19:00:0018,271,21011,1010,0E22,7E180,0
2018-10-20 18:00:0019,865,11010,7012,3E25,7E690,1
2018-10-20 17:00:0021,157,01010,3011,4E25,4E1080,3
2018-10-20 16:00:0021,256,71010,306,6NE17,9N830,3
2018-10-20 15:00:0021,855,81010,508,2SE19,5E1440,6
2018-10-20 14:00:0022,453,01011,0012,9SE25,9S3011,2
2018-10-20 13:00:0022,650,01011,6011,7E21,4E4962,4
2018-10-20 12:00:0020,856,21012,1011,4E25,0NE4521,8
2018-10-20 11:00:0018,067,41012,408,9E21,6E2800,9
2018-10-20 10:00:0014,782,91012,504,1NE9,8NE1120,2
2018-10-20 09:00:0012,093,31012,104,2NE8,9NE530,0
2018-10-20 08:00:0012,192,51011,802,8NE6,7NE10
2018-10-20 07:00:0012,792,41011,504,9NE9,5NE-10
2018-10-20 06:00:0013,091,81011,205,1E13,7E00
2018-10-20 05:00:0012,694,01011,106,5E13,4E00
2018-10-20 04:00:0012,696,11011,105,2E11,7E00
2018-10-20 03:00:0012,695,91011,104,5NE7,8NE00
2018-10-20 02:00:0012,995,31011,203,8E9,3NE00
2018-10-20 01:00:0013,495,21011,204,2NE7,0E00
2018-10-20 00:00:0013,895,11011,203,6E8,5NE00
2018-10-19 23:00:0014,092,91011,001,2N6,3N00
2018-10-19 22:00:0014,588,71010,603,2NW9,0NW00
2018-10-19 21:00:0015,382,01010,103,6NW10,5NW00
2018-10-19 20:00:0016,076,41009,702,4W6,5NW00
2018-10-19 19:00:0017,569,51009,204,4SW9,2W80,0
2018-10-19 18:00:0018,964,51008,606,3SW13,7SW250,1
2018-10-19 17:00:0020,061,51008,008,9S20,5S1130,5
2018-10-19 16:00:0022,358,41008,009,0S25,6S5291,8
2018-10-19 15:00:0022,261,11008,209,5S18,9SW5972,7
2018-10-19 14:00:0020,171,61008,607,8S13,3S4942,6
2018-10-19 13:00:0017,089,81009,205,1SE12,8E3752,1
2018-10-19 12:00:0015,996,41009,504,5E12,4NE3961,8
2018-10-19 11:00:0015,598,61005,104,2NE10,8NE3691,0
2018-10-19 10:00:0014,699,61003,90,22,4NW9,8NE1180,2
2018-10-19 09:00:0014,199,51007,31,61,4N6,5NE70
2018-10-19 08:00:0014,099,31007,10,83,1SE7,2SE00
2018-10-19 07:00:0014,399,01007,10,84,4E10,5NE00
2018-10-19 06:00:0014,498,61007,20,85,5E14,4E00
2018-10-19 05:00:0014,498,41007,10,44,8SE13,3E00
2018-10-19 04:00:0014,398,41007,104,5E9,8E00
2018-10-19 03:00:0014,398,31008,604,2E10,1E00
2018-10-19 02:00:0014,597,81008,704,2N10,8NE00
2018-10-19 01:00:0014,897,61008,504,7NE12,5NE00
2018-10-19 00:00:0015,096,81008,904,0E10,5E00
2018-10-18 23:00:0015,394,31008,512,8NE8,1E00
2018-10-18 22:00:0015,889,21008,10,61,7NE5,3NE00
2018-10-18 21:00:0015,587,51007,201,3NW4,7N00
2018-10-18 20:00:0016,282,31006,401,1NW5,1NW00
2018-10-18 19:00:0016,977,41005,801,9W5,4W100
2018-10-18 18:00:0017,176,91005,506,5N15,5NW500,0
2018-10-18 17:00:0016,878,11005,50,210,5N25,7N750,1
2018-10-18 16:00:0018,264,81005,1012,2N24,8NE1200,5
2018-10-18 15:00:0018,465,01005,2012,8N24,5NE2091,3
2018-10-18 14:00:0018,069,01005,5010,6NE20,0N1761,1
2018-10-18 13:00:0018,272,01006,1010,7N20,7NE2361,3
2018-10-18 12:00:0018,278,11005,408,1NW16,8NW2811,1
2018-10-18 11:00:0016,487,11006,906,6NW14,4NW2010,6
2018-10-18 10:00:0014,993,81007,40,26,5W14,1W1860,2
2018-10-18 09:00:0012,696,31007,508,0W18,8NW680,0
2018-10-18 08:00:0011,695,61007,608,7W18,7NW20
2018-10-18 07:00:0012,496,41008,508,0NW18,9NW00
2018-10-18 06:00:0012,596,91008,806,7NW13,4NW10
2018-10-18 05:00:0012,596,51008,908,8NW18,6NW10
2018-10-18 04:00:0012,995,91009,307,4NW18,1NW10
2018-10-18 03:00:0013,595,81009,90,413,0N37,0N10
2018-10-18 02:00:0013,597,01010,407,7NW16,4NW10
2018-10-18 01:00:0013,395,91010,605,7NW13,8NW10
2018-10-18 00:00:0014,591,71010,71,68,0N25,3NW00
2018-10-17 23:00:0016,481,81011,10,214,6NW31,7N00
2018-10-17 22:00:0017,185,41010,8012,5NW31,4NW00
2018-10-17 21:00:0017,181,11010,809,7NW23,4NW00
2018-10-17 20:00:0017,277,51010,7012,3NW27,8NW00
2018-10-17 19:00:0018,273,31010,4012,5NW29,6NW80,0
2018-10-17 18:00:0020,268,61010,4012,6NW31,5NW330,2
2018-10-17 17:00:0021,464,41010,7013,1NW26,8NW1470,7
2018-10-17 16:00:0025,153,21011,3012,7NW33,2NW4631,9
2018-10-17 15:00:0025,952,51011,809,3NW25,0W5442,7
2018-10-17 14:00:0025,755,21012,908,7W19,8NW5953,0
2018-10-17 13:00:0024,855,41014,006,8SW14,8W5433,0
2018-10-17 12:00:0022,761,71014,903,9S10,7S4802,3
2018-10-17 11:00:0018,779,61015,502,8S8,1SE3911,2
2018-10-17 10:00:0014,797,81015,900,7N4,3NW1420,3
2018-10-17 09:00:0012,898,61015,600,7N3,6NW1040,0
2018-10-17 08:00:0012,298,21015,201,5E4,0N20
2018-10-17 07:00:0012,497,91015,002,2N5,2NW00
2018-10-17 06:00:0012,697,51014,603,0NW6,1NW00
2018-10-17 05:00:0012,897,01014,502,6Erro no sensor de vento!5,6N00
2018-10-17 04:00:0013,296,21014,902,4N5,5NE00
2018-10-17 03:00:0013,695,61014,803,6N7,6N00
2018-10-17 02:00:0014,395,01014,902,6NW10,6NW00
2018-10-17 01:00:0015,094,71015,004,4N10,8NW00
2018-10-17 00:00:0015,193,31014,804,3NW10,9NW00
2018-10-16 23:00:0015,890,71014,403,0NW13,1NW00
2018-10-16 22:00:0016,887,71013,906,5NW15,5N00
2018-10-16 21:00:0017,586,51013,307,8NW17,7NW00
2018-10-16 20:00:0018,582,31012,708,7NW20,5NW00
2018-10-16 19:00:0019,971,91012,005,9N12,1NW90,0
2018-10-16 18:00:0021,665,11011,907,8N17,8NE740,2
2018-10-16 17:00:0021,864,01011,808,0N18,2NE1290,6
2018-10-16 16:00:0021,565,61011,908,0N20,2N1971,0
2018-10-16 15:00:0021,167,41011,907,6NE16,3N1811,2
2018-10-16 14:00:0020,870,31011,908,1NE14,9NE2441,6
2018-10-16 13:00:0019,975,41012,309,7NE19,6N1681,0
2018-10-16 12:00:0018,589,91012,306,7NE15,6N1981,2
2018-10-16 11:00:0017,498,91012,20,24,8NE15,6N1710,6
2018-10-16 10:00:0016,999,91011,601,6NW6,9W1330,3
2018-10-16 09:00:0015,8100,01010,901,2N10,1NE390,0
2018-10-16 08:00:0015,4100,01010,402,4E6,9E30
2018-10-16 07:00:0015,199,81009,901,8N6,7E10
2018-10-16 06:00:0015,299,81009,70,21,7NE6,6N10
2018-10-16 05:00:0015,599,51009,304,2NW10,4NW10
2018-10-16 04:00:0015,799,51009,204,7W10,3NW10
2018-10-16 03:00:0015,699,21009,305,4W10,8NW10
2018-10-16 02:00:0015,898,91009,406,2NW12,7NW10
2018-10-16 01:00:0015,798,51009,506,8W12,9NW10
2018-10-16 00:00:0015,998,01009,605,3W12,6W10
2018-10-15 23:00:0016,097,31009,304,7W9,9W00
2018-10-15 22:00:0016,296,61008,906,2W14,3NW00
2018-10-15 21:00:0016,596,01008,706,0W15,8W00
2018-10-15 20:00:0016,593,91008,30,26,9NW16,6NW00
2018-10-15 19:00:0017,687,11007,8012,0NW35,6NW130,0
2018-10-15 18:00:0018,483,31007,2014,6NW33,8NW510,1
2018-10-15 17:00:0018,293,61007,0014,6NW32,3N2020,7
2018-10-15 16:00:0018,897,01007,2011,0NW30,5N2541,1
2018-10-15 15:00:0018,997,41007,50,614,0W47,0NW1941,2
2018-10-15 14:00:0018,997,81008,32,815,0SW34,4SW1821,2
2018-10-15 13:00:0018,296,21009,4415,6SW38,9SW910,5
2018-10-15 12:00:0019,088,71010,21,815,2SW35,1SW1340,6
2018-10-15 11:00:0019,286,11010,70,213,2SW32,1W1890,7
2018-10-15 10:00:0016,687,91011,408,2W22,0SW1050,2
2018-10-15 09:00:0013,982,61012,102,0E6,6E300,0
2018-10-15 08:00:0013,184,31012,403,4NE7,5N10
2018-10-15 07:00:0012,584,21012,702,3E7,0E00
2018-10-15 06:00:0012,187,11013,001,7NE5,4NE00
2018-10-15 05:00:0011,589,51013,302,0E4,3E00
2018-10-15 04:00:0011,189,11013,800,8E3,6NE00
2018-10-15 03:00:0011,486,81014,202,0NW6,5W00
2018-10-15 02:00:0011,883,81014,303,6W8,1W00
2018-10-15 01:00:0012,480,11014,603,2W6,0NW00
2018-10-15 00:00:0012,778,51014,703,8NW10,8W00
2018-10-14 23:00:0013,175,51014,206,8NW11,2N00
2018-10-14 22:00:0014,169,41013,807,6NW14,4NW00
2018-10-14 21:00:0014,966,01013,207,2NW15,4NW00
2018-10-14 20:00:0016,460,11012,8011,1NW33,2N00
2018-10-14 19:00:0017,554,11012,0015,3NW33,4NW110,0
2018-10-14 18:00:0018,750,71011,4017,6NW37,1NW430,2
2018-10-14 17:00:0020,147,41011,3017,7NW38,4NW2440,8
2018-10-14 16:00:0021,743,31011,5018,7NW37,3NW4842,1
2018-10-14 15:00:0021,543,71012,1018,5NW39,3NW5232,8
2018-10-14 14:00:0020,949,61013,0016,4NW35,7N6003,3
2018-10-14 13:00:0019,852,81013,6014,9NW39,7NW3181,8
2018-10-14 12:00:0020,049,21013,9015,0N34,6W4792,1
2018-10-14 11:00:0018,254,71014,1014,7N32,1N4071,3
2018-10-14 10:00:0016,566,01013,60,29,2NW27,1N1220,2
2018-10-14 09:00:0015,372,11012,607,7N15,9N630,0
2018-10-14 08:00:0014,873,01011,7010,9N24,3N30
2018-10-14 07:00:0014,976,41011,2013,2N30,2N00
2018-10-14 06:00:0014,779,21010,5015,7N34,3N00
2018-10-14 05:00:0013,989,01010,1016,0N40,5NW10
2018-10-14 04:00:0015,195,91009,5015,7NW31,9NW10
2018-10-14 03:00:0015,796,91009,2015,2NW40,4N10
2018-10-14 02:00:0016,196,11008,62,215,8NW32,9NW10
2018-10-14 01:00:0017,196,01007,60,415,3NW36,3NW10
2018-10-14 00:00:0020,492,71006,63,616,8W36,3N10
2018-10-13 23:00:0022,489,41006,5015,2SW31,5SW10
2018-10-13 22:00:0022,389,71007,1011,9SW24,5SW10
2018-10-13 21:00:0022,191,81007,1010,8SW32,9SW10
2018-10-13 20:00:0022,090,61006,1014,6S33,5S10
2018-10-13 19:00:0022,686,71007,609,4S19,7S230,0
2018-10-13 18:00:0023,582,91008,3011,7S23,5SE830,2
2018-10-13 17:00:0024,277,81008,5015,7SE29,3SE2290,7
2018-10-13 16:00:0025,572,21009,0016,6SE31,7SE4261,8
2018-10-13 15:00:0025,471,51009,4016,2SE30,9SE4162,4
2018-10-13 14:00:0025,769,41010,3017,7SE35,0SE5173,0
2018-10-13 13:00:0025,171,91011,2016,7SE33,1S5132,7
2018-10-13 12:00:0024,075,11012,0014,0SE31,2S3731,8
2018-10-13 11:00:0022,281,91012,4010,3SE26,2SE2901,1
2018-10-13 10:00:0018,391,51012,903,6E8,2E1960,4
2018-10-13 09:00:0015,998,11013,102,4E8,0E1010,0
2018-10-13 08:00:0015,398,01013,002,8NE8,4NE50
2018-10-13 07:00:0015,597,91013,403,3E11,6E00
2018-10-13 06:00:0015,697,51013,502,4E6,9W00
2018-10-13 05:00:0016,097,11013,602,8NE7,2E00
2018-10-13 04:00:0016,296,61013,903,2E7,6E00
2018-10-13 03:00:0016,795,81014,002,8NE6,1E00
2018-10-13 02:00:0017,195,21014,403,0E8,3SE00
2018-10-13 01:00:0017,593,81014,902,2NE6,1N00
2018-10-13 00:00:0018,292,21015,501,8E7,3NE00
2018-10-12 23:00:0018,991,41016,203,0E6,3E00
2018-10-12 22:00:0019,489,81016,302,9SE5,9SE00
2018-10-12 21:00:0019,887,21015,901,5S6,2SE00
2018-10-12 20:00:0020,882,61015,602,8SW9,1S10
2018-10-12 19:00:0022,176,71015,60,26,7SW13,8SW320,0
2018-10-12 18:00:0022,973,31015,707,5SW19,3S730,2
2018-10-12 17:00:0024,168,21015,707,9S16,7S2480,8
2018-10-12 16:00:0025,762,51016,0010,4S21,6S4141,8
2018-10-12 15:00:0026,260,21016,4010,3SW18,8SW4962,6
2018-10-12 14:00:0026,360,21016,9010,2SW21,7SW6013,1
2018-10-12 13:00:0025,365,21017,407,8S18,2S5742,9
2018-10-12 12:00:0024,863,51017,606,6S13,1S5102,2
2018-10-12 11:00:0021,285,31017,704,1E10,5E3831,2
2018-10-12 10:00:0017,997,91017,803,6E12,9NE2290,3
2018-10-12 09:00:0016,498,51017,303,5E8,9E740,0
2018-10-12 08:00:0015,798,21016,703,0E9,7E60
2018-10-12 07:00:0016,097,81015,902,9E11,3N00
2018-10-12 06:00:0016,597,31015,002,4NE9,1NE-10
2018-10-12 05:00:0016,996,41014,401,9NE6,8NE-10
2018-10-12 04:00:0017,895,51014,002,0N6,6NW-10
2018-10-12 03:00:0018,594,01013,901,9SW10,4W00
2018-10-12 02:00:0019,291,21013,803,2SW13,3S-10
2018-10-12 01:00:0020,187,11013,904,6SW14,0S00
2018-10-12 00:00:0020,382,81013,803,9SW10,5SW00
2018-10-11 23:00:0020,379,01013,501,7W7,3W-10
2018-10-11 22:00:0020,680,11013,003,1W9,2SW-10
2018-10-11 21:00:0021,079,11012,204,3SW10,2SW00
2018-10-11 20:00:0021,776,11011,404,4SW12,2W00
2018-10-11 19:00:0022,574,81010,70,27,7SW16,8SW250,0
2018-10-11 18:00:0023,372,41010,109,7SW20,5SW1010,1
2018-10-11 17:00:0024,568,71009,708,4SW21,8SW1880,6
2018-10-11 16:00:0025,267,51009,6010,3SW22,4SW3291,4
2018-10-11 15:00:0024,471,01009,4010,5SW23,3S3622,0
2018-10-11 14:00:0023,975,11009,609,1SW16,7S3772,1
2018-10-11 13:00:0022,983,01009,608,9SW22,8SW2841,5
2018-10-11 12:00:0021,690,91009,508,3SW21,3SW1560,7
2018-10-11 11:00:0020,991,91009,20,410,2SW32,6SW1000,3
2018-10-11 10:00:0021,580,11008,6011,4SW27,6W350,0
2018-10-11 09:00:0019,783,31007,807,4W22,2SW290,0
2018-10-11 08:00:0017,785,51007,103,4W10,9SW20
2018-10-11 07:00:0018,682,11006,703,0W10,9W00
2018-10-11 06:00:0019,283,01006,103,9W14,1W00
2018-10-11 05:00:0019,086,31005,706,7W15,9W00
2018-10-11 04:00:0019,089,11005,503,2W12,7NW00
2018-10-11 03:00:0019,490,31005,503,7NW11,9NW-10
2018-10-11 02:00:0019,588,91005,503,0W11,3SW-10
2018-10-11 01:00:0019,687,31005,501,7NW11,5NW00
2018-10-11 00:00:0019,388,71005,401,1E5,1E00
2018-10-10 23:00:0018,890,01005,302,4E6,2NE-10
2018-10-10 22:00:0019,388,41005,002,8N9,2N-10
2018-10-10 21:00:0019,686,51004,603,3NW8,3NW00
2018-10-10 20:00:0020,481,81004,003,9W11,6W-10
2018-10-10 19:00:0021,871,11003,505,9SW11,6SW100
2018-10-10 18:00:0022,467,81003,006,5SW13,3S590,1
2018-10-10 17:00:0022,964,91002,907,3SW15,1SW1260,4
2018-10-10 16:00:0023,562,21003,007,9SW16,2SW1810,8
2018-10-10 15:00:0024,957,01003,208,4SW18,0SW4602,4
2018-10-10 14:00:0025,455,41003,708,1SW17,5SW5482,8
2018-10-10 13:00:0024,357,71003,908,4SW18,9SW3892,1
2018-10-10 12:00:0022,960,81004,007,0S14,4S2611,3
2018-10-10 11:00:0021,962,91004,006,5SW15,8SW1400,5
2018-10-10 10:00:0021,067,61003,807,5SW19,4SW840,1
2018-10-10 09:00:0019,176,61003,504,5SW12,0SW370,0
2018-10-10 08:00:0018,082,21003,101,8NW9,3NW20
2018-10-10 07:00:0018,082,51003,201,4N6,5N00
2018-10-10 06:00:0018,083,31003,302,3NE6,4NE00
2018-10-10 05:00:0017,985,61003,402,0NE5,7NE-10
2018-10-10 04:00:0017,487,91003,501,5NE3,9E00
2018-10-10 03:00:0017,086,31004,001,3E3,2E-10
2018-10-10 02:00:0017,185,61004,401,4E3,9NE-10
2018-10-10 01:00:0016,888,21004,501,8N5,8NW-10
2018-10-10 00:00:0015,990,61004,502,6NW6,0NW-10
2018-10-09 23:00:0016,188,61004,402,7NW10,9NW00
2018-10-09 22:00:0017,085,51004,103,6NW12,5NW00
2018-10-09 21:00:0018,181,61003,704,6W11,8W00
2018-10-09 20:00:0019,378,01003,306,3W15,2W00
2018-10-09 19:00:0020,773,31003,008,9SW23,2SW130,0
2018-10-09 18:00:0021,768,11003,0010,2SW23,8SW430,2
2018-10-09 17:00:0022,960,01003,2012,7SW23,8S2940,8
2018-10-09 16:00:0025,052,71003,8012,0SW22,7S5131,8
2018-10-09 15:00:0024,954,61004,5010,4SW20,8SW6012,6
2018-10-09 14:00:0024,556,91005,4010,1S20,8S6322,9
2018-10-09 13:00:0024,050,71006,108,4S15,8SW6082,7
2018-10-09 12:00:0022,753,11006,806,2S13,8S5412,1
2018-10-09 11:00:0019,662,51007,304,1SE10,6SE4221,2
2018-10-09 10:00:0015,677,71007,701,9NE10,3N2700,3
2018-10-09 09:00:0012,492,11007,702,1NE5,9SE1120,0
2018-10-09 08:00:0011,693,71007,101,9NE5,3NE40
2018-10-09 07:00:0011,592,11007,201,9E4,4NE00
2018-10-09 06:00:0011,889,91007,101,7E5,1E-10
2018-10-09 05:00:0011,887,71007,102,7NE7,1NE-10
2018-10-09 04:00:0012,387,71007,401,5N6,0NE-10
2018-10-09 03:00:0012,686,51007,901,0N3,6N-10
2018-10-09 02:00:0013,488,41008,502,1NE5,4W00
2018-10-09 01:00:0014,089,81008,701,8N5,1NE00
2018-10-09 00:00:0014,686,21008,702,9NW11,5NW00
2018-10-08 23:00:0015,584,91008,904,8NW11,6W00
2018-10-08 22:00:0016,581,51008,706,5W13,0W00
2018-10-08 21:00:0017,677,41008,206,3W13,7W00
2018-10-08 20:00:0019,166,81007,605,4W15,5W00
2018-10-08 19:00:0021,454,41007,407,1W17,8W110,0
2018-10-08 18:00:0023,348,41007,609,9W21,6W470,2
2018-10-08 17:00:0024,653,51008,0014,2SW27,1SW3070,9
2018-10-08 16:00:0027,146,11008,7014,5SW28,6SW5332,1
2018-10-08 15:00:0025,751,81009,3013,6SW24,7SW6182,9
2018-10-08 14:00:0025,650,31009,9013,2SW26,7SW6453,2
2018-10-08 13:00:0025,440,61010,807,6SW18,5SW6233,0
2018-10-08 12:00:0023,044,01011,305,7S11,8S5552,3
2018-10-08 11:00:0019,852,41011,804,8S10,3SE4331,3
2018-10-08 10:00:0015,366,11012,002,5NE7,2E2830,3
2018-10-08 09:00:0012,075,31012,102,1NE9,1SE1200,0
2018-10-08 08:00:0010,783,21011,401,5N5,6N40
2018-10-08 07:00:0010,885,41011,301,6NW7,3NE-10
2018-10-08 06:00:0011,487,21011,101,9N4,8NE-10
2018-10-08 05:00:0012,384,61011,202,8NW6,6N-10
2018-10-08 04:00:0012,879,01011,801,6E4,2N00
2018-10-08 03:00:0013,377,31011,801,8NW7,5SW00
2018-10-08 02:00:0013,672,71011,602,5NW5,9SW00
2018-10-08 01:00:0014,877,41011,803,8N11,3N-10
2018-10-08 00:00:0015,775,81012,005,0NW13,9W00
2018-10-07 23:00:0016,070,01011,804,6NW10,6NW00
2018-10-07 22:00:0016,761,01011,404,7W12,4NW-10
2018-10-07 21:00:0018,353,11011,004,6NW13,4W00
2018-10-07 20:00:0020,237,61010,4010,1W20,8W00
2018-10-07 19:00:0022,129,81010,0011,4NW27,2N110,0
2018-10-07 18:00:0023,535,61009,9013,9NW27,8NW460,2
2018-10-07 17:00:0026,633,51009,9012,7NW25,8NW3090,9
2018-10-07 16:00:0030,026,91010,3012,8W28,9W5362,1
2018-10-07 15:00:0031,125,61010,8010,0W25,5W6202,9
2018-10-07 14:00:0028,338,61011,907,6SW16,5W6443,2
2018-10-07 13:00:0027,338,71012,908,1SW17,7SW6072,9
2018-10-07 12:00:0025,239,31013,503,9NW12,4NW5332,2
2018-10-07 11:00:0022,246,41014,102,5E6,3E4131,3
2018-10-07 10:00:0018,859,71014,202,4E9,1NE2620,4
2018-10-07 09:00:0015,677,41014,000,7NW3,2NW1070,0
2018-10-07 08:00:0015,374,51013,403,3NW5,8N50
2018-10-07 07:00:0015,872,21013,104,0N9,0N-10
2018-10-07 06:00:0016,671,01012,905,6N11,3N-10
2018-10-07 05:00:0016,377,71012,704,1N12,8N-10
2018-10-07 04:00:0016,383,21012,703,2NE6,9E-10
2018-10-07 03:00:0016,987,11012,602,3NW4,6N-10
2018-10-07 02:00:0017,587,71012,501,7SE5,7E-10
2018-10-07 01:00:0017,878,61012,602,6E6,1N-10
2018-10-07 00:00:0018,471,11012,502,7NW6,2NW-10
2018-10-06 23:00:0019,067,71012,603,8NW7,5NW00
2018-10-06 22:00:0020,365,91012,405,3NW17,8NW00
2018-10-06 21:00:0021,267,11011,607,3NW16,5NW00
2018-10-06 20:00:0021,976,31011,106,8W18,0NW10
2018-10-06 19:00:0023,381,11010,609,4SW21,4SW250,0
2018-10-06 18:00:0024,573,61010,208,2SW14,8S750,2
2018-10-06 17:00:0026,465,21010,405,5S11,6SW3021,0
2018-10-06 16:00:0027,561,51011,008,4S19,2S5042,1
2018-10-06 15:00:0027,260,31011,4011,8S27,7S5922,9
2018-10-06 14:00:0027,056,81011,5013,9S32,1SE6263,3
2018-10-06 13:00:0026,454,51011,9014,5S28,6SE4702,6
2018-10-06 12:00:0026,653,91012,407,1SE21,5S4282,0
2018-10-06 11:00:0024,260,41012,606,8E14,2E4181,3
2018-10-06 10:00:0021,571,01012,506,3E14,8NE2350,4
2018-10-06 09:00:0017,886,11012,204,0NE9,5E1120,1
2018-10-06 08:00:0016,288,01011,704,1E9,3E50
2018-10-06 07:00:0016,088,11011,304,2E12,3NE00
2018-10-06 06:00:0015,989,31010,903,0E6,4NE-10
2018-10-06 05:00:0016,389,21010,902,8E4,4E-10
2018-10-06 04:00:0016,787,71010,802,2E6,7E-10
2018-10-06 03:00:0017,086,11010,502,3E10,2SE-10
2018-10-06 02:00:0017,583,61010,302,2E6,3NE-10
2018-10-06 01:00:0017,980,41010,501,8E4,8E-10
2018-10-06 00:00:0018,978,41010,602,2E5,7E-10
2018-10-05 23:00:0019,477,61010,303,1E7,3E-10
2018-10-05 22:00:0020,674,11009,903,0E6,0NE-10
2018-10-05 21:00:0022,171,21009,505,8E10,7E-10
2018-10-05 20:00:0023,167,71009,407,5SE15,5SE00
2018-10-05 19:00:0024,361,81009,3010,0SE22,8E130,0
2018-10-05 18:00:0025,455,61009,2014,0SE26,1E550,2
2018-10-05 17:00:0027,347,71009,4015,5SE29,0SE3181,0
2018-10-05 16:00:0028,443,51009,6016,8SE31,4SE5362,1
2018-10-05 15:00:0028,442,51009,9018,3SE36,6SE6212,9
2018-10-05 14:00:0028,438,91010,3018,2SE35,8SE6513,2
2018-10-05 13:00:0028,336,61011,2015,7SE32,8SE6203,0
2018-10-05 12:00:0027,536,21011,8015,3SE32,6E5512,3
2018-10-05 11:00:0024,846,01012,209,0E24,8SE4311,3
2018-10-05 10:00:0019,260,71012,402,6E10,8E2810,4
2018-10-05 09:00:0016,069,61012,302,9E7,2E1190,0
2018-10-05 08:00:0014,673,61012,003,8E8,2E40
2018-10-05 07:00:0014,573,51011,902,5E5,2E-10
2018-10-05 06:00:0015,071,61011,802,1NE4,6N-10
2018-10-05 05:00:0015,969,11011,702,2NE4,7NE00
2018-10-05 04:00:0017,164,81011,803,7NE8,5SE-10
2018-10-05 03:00:0017,663,31012,303,7NE7,2E-10
2018-10-05 02:00:0017,864,91012,604,0NE8,0E00
2018-10-05 01:00:0018,063,71012,803,4NE6,3NE-10
2018-10-05 00:00:0017,863,51012,802,7NE9,1NE-10
2018-10-04 23:00:0018,864,21012,702,1NE4,1N-10
2018-10-04 22:00:0019,762,11011,903,5NW15,7N00
2018-10-04 21:00:0020,752,21011,304,1NW9,0NW-10
2018-10-04 20:00:0022,543,31011,203,7W10,2W10
2018-10-04 19:00:0024,637,41011,201,9W7,5W130,0
2018-10-04 18:00:0026,237,31011,205,0S13,0S550,2
2018-10-04 17:00:0028,733,71011,609,2S19,0S3281,1
2018-10-04 16:00:0030,730,51012,3011,1S20,5S5482,2
2018-10-04 15:00:0031,330,11012,9011,1S20,6S6243,0
2018-10-04 14:00:0029,933,51013,6010,8S23,0SE6423,4
2018-10-04 13:00:0028,936,71014,5010,2SE21,8SE6033,1
2018-10-04 12:00:0027,739,41015,0011,4SE24,3S5332,3
2018-10-04 11:00:0024,753,51015,503,9E11,2NE4221,3
2018-10-04 10:00:0019,576,01015,501,1NE4,3NW2850,4
2018-10-04 09:00:0016,090,71015,602,8E6,3E1330,0
2018-10-04 08:00:0015,094,71015,202,6E5,7E50
2018-10-04 07:00:0015,395,61014,903,2E8,1E00
2018-10-04 06:00:0016,096,31014,602,5E8,2E00
2018-10-04 05:00:0016,895,61014,502,3E8,0E00
2018-10-04 04:00:0017,395,11014,703,6E8,7E00
2018-10-04 03:00:0017,594,01015,103,4E9,9E00
2018-10-04 02:00:0017,693,21015,203,4E9,1E00
2018-10-04 01:00:0017,992,01015,203,4N7,0N00
2018-10-04 00:00:0018,791,81015,104,2N13,2N00
2018-10-03 23:00:0019,691,91015,204,8N15,3N00
2018-10-03 22:00:0020,589,61015,004,0NW10,3NW00
2018-10-03 21:00:0021,184,31014,804,9NW13,2W00
2018-10-03 20:00:0021,878,21014,402,5W7,4W10
2018-10-03 19:00:0023,373,61014,104,7SW9,0SW200,0
2018-10-03 18:00:0024,570,11013,906,8SW15,6S680,3
2018-10-03 17:00:0026,265,01014,109,8S20,3SW3091,1
2018-10-03 16:00:0027,662,71014,5011,3S21,1S5252,1
2018-10-03 15:00:0027,762,51015,2012,0S22,1S6132,9
2018-10-03 14:00:0028,361,21016,1013,8S23,4S6473,3
2018-10-03 13:00:0027,961,71016,6011,7S22,7S6213,0
2018-10-03 12:00:0026,668,61016,708,5S21,1SE5302,2
2018-10-03 11:00:0024,079,21016,604,3SE9,2SE4011,2
2018-10-03 10:00:0020,990,51016,604,1E9,9E2260,4
2018-10-03 09:00:0019,097,01016,502,8E12,3NE1090,0
2018-10-03 08:00:0018,797,41016,102,4NE9,0E60
2018-10-03 07:00:0018,897,81015,904,3E9,9E00
2018-10-03 06:00:0018,198,31015,603,4E9,8E00
2018-10-03 05:00:0017,098,21015,303,9NE13,1E00
2018-10-03 04:00:0017,598,31015,103,2SE8,5E00
2018-10-03 03:00:0017,597,91014,702,7SE9,1W00
2018-10-03 02:00:0018,197,71014,701,7NE5,5NW00
2018-10-03 01:00:0018,897,41014,703,2N6,3NW00
2018-10-03 00:00:0019,596,91014,402,9NW6,5NW-10
2018-10-02 23:00:0020,396,11014,302,0NW6,3NW00
2018-10-02 22:00:0020,994,71014,001,9NW5,1NW-10
2018-10-02 21:00:0021,692,01013,501,8W5,0S00
2018-10-02 20:00:0022,587,31013,003,0SW7,4S10
2018-10-02 19:00:0024,080,11012,706,7S14,1SW230,0
2018-10-02 18:00:0024,975,71012,506,6S13,2S690,3
2018-10-02 17:00:0026,470,71012,709,2S18,9S3141,1
2018-10-02 16:00:0027,767,31012,8013,1S25,8S5322,1
2018-10-02 15:00:0028,862,91013,2012,3S26,0S6243,0
2018-10-02 14:00:0029,060,91013,7012,3S24,5S6513,3
2018-10-02 13:00:0028,958,41014,2011,6S21,7S6213,0
2018-10-02 12:00:0027,955,41014,609,9S17,6S5492,3
2018-10-02 11:00:0026,650,01014,706,3SE19,8S4281,4
2018-10-02 10:00:0021,954,71014,402,5E7,5E2790,5
2018-10-02 09:00:0018,069,01014,003,6E6,9E1190,1
2018-10-02 08:00:0016,672,61013,302,6NE7,1N60
2018-10-02 07:00:0016,263,71012,601,6E7,4NW-10
2018-10-02 06:00:0016,359,91012,401,7NE3,5N-10
2018-10-02 05:00:0016,955,71011,902,4N5,2NW00
2018-10-02 04:00:0017,352,01012,102,7N8,8N00
2018-10-02 03:00:0017,555,91012,102,6NW6,2NW-10
2018-10-02 02:00:0018,554,51012,201,6N10,3NW-10
2018-10-02 01:00:0019,055,61012,202,2NW5,7W00
2018-10-02 00:00:0019,750,11012,301,8N9,3E00
2018-10-01 23:00:0021,241,51011,802,5NW5,3NW00
2018-10-01 22:00:0022,439,21011,403,7NW14,3W-10
2018-10-01 21:00:0023,940,21010,806,3NW14,5NW00
2018-10-01 20:00:0025,937,11010,208,9NW22,8NW20
2018-10-01 19:00:0028,831,41009,9010,9NW24,9NW200,0
2018-10-01 18:00:0031,034,41009,8010,2NW26,4NW710,3
2018-10-01 17:00:0033,237,01010,4010,6W25,1NW3201,1
2018-10-01 16:00:0034,236,81011,109,3SW15,7SW5342,1
2018-10-01 15:00:0032,944,41011,8010,2S17,7SW6182,9
2018-10-01 14:00:0031,146,01012,509,1S22,4S6483,3
2018-10-01 13:00:0029,945,31013,408,7S16,6S6213,1
2018-10-01 12:00:0029,943,91014,105,8SW13,5SW5452,4
2018-10-01 11:00:0026,155,31014,204,1NW9,8W4201,4
2018-10-01 10:00:0021,970,51014,205,7N12,2NW2700,5
2018-10-01 09:00:0018,683,81014,203,7N7,3NW1140,1
2018-10-01 08:00:0017,489,91013,801,5NE5,6N60
2018-10-01 07:00:0017,788,81013,202,0NE5,1N-10
2018-10-01 06:00:0017,790,61012,802,7NE8,8N00
2018-10-01 05:00:0018,293,21012,802,3N10,2NE00
2018-10-01 04:00:0018,794,11013,002,6N8,6N-10
2018-10-01 03:00:0019,494,01013,202,3N8,6N-10
2018-10-01 02:00:0019,893,01013,103,1NW9,4N00
2018-10-01 01:00:0020,189,41013,303,4NW6,4NW-10
2018-10-01 00:00:0020,988,91013,502,5N8,5N-10
2018-09-30 23:00:0021,889,11013,604,1SE10,7SE-10
2018-09-30 22:00:0022,187,51012,901,5W4,1SW-10
2018-09-30 21:00:0022,386,51012,402,4W5,5W00
2018-09-30 20:00:0022,984,21012,004,6SE8,8SE20
2018-09-30 19:00:0024,079,11011,308,3S17,8S280,0
2018-09-30 18:00:0025,572,51011,308,9S18,2S1180,3
2018-09-30 17:00:0026,766,91011,607,8S17,3SE2481,0
2018-09-30 16:00:0028,954,41011,6010,4S20,3SE5392,3
2018-09-30 15:00:0029,846,71012,0011,1S22,4SW6233,1
2018-09-30 14:00:0029,746,01012,4010,1S19,3S7063,7
2018-09-30 13:00:0028,756,61012,807,5S14,8S6083,2
2018-09-30 12:00:0027,862,91013,3010,4S19,9SW5322,4
2018-09-30 11:00:0025,867,41013,407,5SE16,1S4041,4
2018-09-30 10:00:0021,970,21013,403,1E8,9E2010,5
2018-09-30 09:00:0019,573,81012,902,4NE6,4NE1180,1
2018-09-30 08:00:0017,582,31012,302,6E10,4E80
2018-09-30 07:00:0017,583,01011,802,3NE4,9NE00
2018-09-30 06:00:0017,482,21011,302,7NE5,9E-10
2018-09-30 05:00:0017,582,11011,102,6NE4,7NE00
2018-09-30 04:00:0018,080,81011,202,3NE6,0NE00
2018-09-30 03:00:0017,777,11011,203,1N11,6N00
2018-09-30 02:00:0018,573,31010,902,7NW5,9N00
2018-09-30 01:00:0019,368,71010,701,7W6,7W-10
2018-09-30 00:00:0020,368,51010,502,0W5,0W00
2018-09-29 23:00:0020,867,11010,203,7NW6,9NW00
2018-09-29 22:00:0021,565,31010,005,3NW12,7NW00
2018-09-29 21:00:0022,065,31009,705,9NW13,6W00
2018-09-29 20:00:0023,272,11009,505,5W12,3W20
2018-09-29 19:00:0024,370,61009,306,6SW12,0SW220,0
2018-09-29 18:00:0024,965,71009,207,8SW14,8S790,3
2018-09-29 17:00:0027,158,51009,508,3SW18,1SW3581,3
2018-09-29 16:00:0029,051,11009,809,6S17,3S5432,4
2018-09-29 15:00:0028,951,31010,3010,1S21,5S6343,3
2018-09-29 14:00:0028,754,81011,0010,1S19,5SW6593,6
2018-09-29 13:00:0028,156,31011,509,8S18,1S6293,4
2018-09-29 12:00:0027,259,51011,9010,3S22,9S5532,5
2018-09-29 11:00:0025,468,61012,205,3SE14,0SE4281,5
2018-09-29 10:00:0022,478,21012,303,8E11,0NE2770,6
2018-09-29 09:00:0019,788,71012,002,6NE7,7NE1250,1
2018-09-29 08:00:0018,994,41011,602,8NE6,6NE80
2018-09-29 07:00:0019,594,31011,403,5E9,0E-10
2018-09-29 06:00:0019,591,01011,003,2NE10,6N-10
2018-09-29 05:00:0019,685,01011,004,9NE16,2E-10
2018-09-29 04:00:0019,284,51011,205,5E12,8E-10
2018-09-29 03:00:0018,986,71011,302,5E5,8E-10
2018-09-29 02:00:0018,886,91011,102,3N10,5NW-10
2018-09-29 01:00:0019,089,21011,102,7NW5,4NW00
2018-09-29 00:00:0019,687,21011,202,1NW6,5W00
2018-09-28 23:00:0020,780,31011,202,3W11,9W00
2018-09-28 22:00:0021,672,51011,103,4W10,9W-10
2018-09-28 21:00:0022,867,51010,803,9W10,6W00
2018-09-28 20:00:0024,361,51010,406,4W14,4NW30
2018-09-28 19:00:0025,362,21010,407,5W17,5W220,0
2018-09-28 18:00:0025,364,81010,8011,9SW28,0SW810,3
2018-09-28 17:00:0027,159,91011,3012,8SW23,6S3691,3
2018-09-28 16:00:0028,855,21011,7014,2SW24,5SW5432,4
2018-09-28 15:00:0029,353,91012,5012,9SW24,6SW6283,3
2018-09-28 14:00:0029,354,81013,3013,1S25,6S6763,7
2018-09-28 13:00:0029,648,61014,1011,8S21,7S6303,3
2018-09-28 12:00:0029,049,31014,809,8S20,0S5462,5
2018-09-28 11:00:0026,856,21015,405,8E13,2E4231,5
2018-09-28 10:00:0023,670,71015,403,3E9,2SE2480,5
2018-09-28 09:00:0020,979,81015,102,0NE5,0E1240,1
2018-09-28 08:00:0019,782,61014,301,9NW4,9N90
2018-09-28 07:00:0020,082,01014,104,6N7,7N-10
2018-09-28 06:00:0020,979,91014,503,3NE7,6NE-10
2018-09-28 05:00:0021,478,81014,704,0NE8,5N-10
2018-09-28 04:00:0021,779,51015,204,1NE7,7NE-10
2018-09-28 03:00:0022,378,51015,704,1E8,0E-10
2018-09-28 02:00:0022,377,21016,102,8E7,0E-10
2018-09-28 01:00:0022,275,81016,203,0NE8,2E00
2018-09-28 00:00:0022,674,71016,102,1NW5,4NW00
2018-09-27 23:00:0023,571,41016,303,1SW8,1SW-10
2018-09-27 22:00:0024,069,01016,304,0SW12,6SW-10
2018-09-27 21:00:0024,765,91015,803,4SW9,0W-10
2018-09-27 20:00:0025,761,81015,405,5S13,3S40
2018-09-27 19:00:0026,758,51015,406,6S14,4S340,0
2018-09-27 18:00:0027,655,01015,4010,3S19,8S960,4
2018-09-27 17:00:0029,848,61015,809,6S21,6SE3741,4
2018-09-27 16:00:0030,547,21016,2012,2S26,1S5412,5
2018-09-27 15:00:0030,349,31016,9014,6S31,9S6263,4
2018-09-27 14:00:0030,253,01017,7015,2S27,6SE6523,8
2018-09-27 13:00:0030,351,51018,2012,3S23,3SE6233,5
2018-09-27 12:00:0029,948,51018,70,211,6SE24,0SE5482,6
2018-09-27 11:00:0027,754,31018,8011,3E23,6SE4271,6
2018-09-27 10:00:0025,363,11018,709,9E19,4E2780,6
2018-09-27 09:00:0022,873,21018,408,5E18,1NE1250,1
2018-09-27 08:00:0021,977,61017,907,0E16,3E100
2018-09-27 07:00:0021,980,21017,707,9E15,6NE-10
2018-09-27 06:00:0022,378,61017,507,4E15,5E-10
2018-09-27 05:00:0022,776,01017,507,1E13,4E-10
2018-09-27 04:00:0023,871,91017,709,6E22,0E-10
2018-09-27 03:00:0024,368,91018,0012,4E27,2E00
2018-09-27 02:00:0024,568,31018,3014,0E32,0E-10
2018-09-27 01:00:0024,767,51018,1013,7E33,4SE-10
2018-09-27 00:00:0025,065,61017,9012,0E26,2E-10
2018-09-26 23:00:0024,767,11017,608,6E27,9E-10
2018-09-26 22:00:0025,166,01017,106,5E14,9E00
2018-09-26 21:00:0026,063,51016,309,3E22,0SE-10
2018-09-26 20:00:0026,562,21015,6012,2SE22,9SE30
2018-09-26 19:00:0027,358,51015,0014,3SE27,7SE200,0
2018-09-26 18:00:0028,454,11014,8015,3SE29,8SE1030,4
2018-09-26 17:00:0029,950,21015,2019,4SE39,1E3971,5
2018-09-26 16:00:0030,549,71015,5021,7SE43,5E5552,7
2018-09-26 15:00:0030,052,01015,9023,3SE46,6SE6383,6
2018-09-26 14:00:0029,653,11016,5022,7SE42,7E6624,0
2018-09-26 13:00:0028,756,31016,9022,6SE48,0E6323,6
2018-09-26 12:00:0027,760,11017,3023,4SE41,2E5542,7
2018-09-26 11:00:0027,063,41017,2020,2SE36,4SE4321,6
2018-09-26 10:00:0025,769,81016,7019,9SE41,5SE2810,6
2018-09-26 09:00:0024,077,11016,0012,6E34,5E1280,1
2018-09-26 08:00:0022,782,41015,607,7E18,1E110
2018-09-26 07:00:0021,786,71015,206,7E23,8SE-10
2018-09-26 06:00:0021,086,21014,805,8NE10,9NE-10
2018-09-26 05:00:0020,190,31014,605,3NE13,0NE-10
2018-09-26 04:00:0020,389,21014,602,5E6,6E-10
2018-09-26 03:00:0020,888,01014,703,0E6,7E-10
2018-09-26 02:00:0021,285,71014,803,7E6,5E-10
2018-09-26 01:00:0021,883,21014,903,4E6,1E-10
2018-09-26 00:00:0022,580,31014,604,3E9,2E-10
2018-09-25 23:00:0023,178,61014,305,5E11,4NE-10
2018-09-25 22:00:0023,677,11013,805,6E10,6E-10
2018-09-25 21:00:0024,475,01013,006,0E12,2SE00
2018-09-25 20:00:0025,172,41012,508,2SE17,4SE30
2018-09-25 19:00:0026,268,01012,309,8SE22,4SE210,0
2018-09-25 18:00:0027,463,41012,2010,9SE22,6SE1110,4
2018-09-25 17:00:0029,257,61012,5013,9SE25,7SE4181,5
2018-09-25 16:00:0030,153,01012,9016,2SE31,9SE5692,8
2018-09-25 15:00:0030,647,91013,4017,2SE32,2SE6513,7
2018-09-25 14:00:0031,339,71014,0019,2SE35,6SE6744,1
2018-09-25 13:00:0032,232,91014,5014,8SE28,6S6453,8
2018-09-25 12:00:0031,730,51014,6015,6SE27,5SE5722,9
2018-09-25 11:00:0030,531,61014,5012,7SE28,9SE4481,7
2018-09-25 10:00:0026,442,21014,202,8E9,2E2950,7
2018-09-25 09:00:0021,955,01013,901,6NE5,1NE1380,1
2018-09-25 08:00:0020,057,21013,603,8E15,1E120
2018-09-25 07:00:0019,556,81013,103,6E11,1E-10
2018-09-25 06:00:0020,157,41012,802,8E8,0E-10
2018-09-25 05:00:0020,257,91012,704,2E15,0E00
2018-09-25 04:00:0020,255,41012,702,6E5,0E-10
2018-09-25 03:00:0020,753,41012,902,4NE6,0E-10
2018-09-25 02:00:0021,552,41013,002,9NE6,3NW00
2018-09-25 01:00:0022,349,01013,101,9E5,7SE-10
2018-09-25 00:00:0023,442,71013,002,5NE6,4NE-10
2018-09-24 23:00:0024,439,11012,404,6NW10,2N00
2018-09-24 22:00:0025,337,31012,105,5NW11,8NW00
2018-09-24 21:00:0026,835,41011,706,4NW13,3NW00
2018-09-24 20:00:0028,932,51011,507,9W16,2NW40
2018-09-24 19:00:0030,132,21011,407,7SW13,9W220,0
2018-09-24 18:00:0031,431,51011,509,1SW17,7SW1210,4
2018-09-24 17:00:0034,028,21011,909,3S18,3SW4231,5
2018-09-24 16:00:0035,723,81012,508,8S17,1S5612,7
2018-09-24 15:00:0035,024,11013,2010,4S20,4S6453,7
2018-09-24 14:00:0034,823,71013,9011,0S23,4SE6674,0
2018-09-24 13:00:0035,023,61014,6011,1S22,8SE6363,7
2018-09-24 12:00:0034,026,31015,106,9S17,4SE5602,8
2018-09-24 11:00:0031,233,31015,002,7E8,8SE4411,7
2018-09-24 10:00:0025,251,21014,801,6E11,4SE2890,7
2018-09-24 09:00:0021,464,31014,501,4E4,7E1340,1
2018-09-24 08:00:0019,866,71014,102,2N6,4N120
2018-09-24 07:00:0019,968,71014,001,9NE8,4NW-10
2018-09-24 06:00:0020,466,31013,802,3E5,6E-10
2018-09-24 05:00:0020,567,01013,703,5E6,1E-10
2018-09-24 04:00:0021,264,51013,902,7E6,1SE-10
2018-09-24 03:00:0022,658,91014,203,6E7,4E-10
2018-09-24 02:00:0023,553,31014,305,4E10,7E-10
2018-09-24 01:00:0023,948,61014,206,8E11,9SE-10
2018-09-24 00:00:0023,457,11014,004,9E9,9E-10
2018-09-23 23:00:0024,154,01013,702,6N5,3N-10
2018-09-23 22:00:0024,953,71013,106,6NW15,6N00
2018-09-23 21:00:0026,945,91012,606,7W17,0NW00
2018-09-23 20:00:0029,328,91012,507,7W20,2W40
2018-09-23 19:00:0031,625,21012,609,1NW19,8NW220,0
2018-09-23 18:00:0032,426,51012,908,0W20,1NW1280,5
2018-09-23 17:00:0034,223,81013,5010,1SW26,2S4441,6
2018-09-23 16:00:0035,321,61014,208,0S14,9S5752,8
2018-09-23 15:00:0034,725,71014,807,4S16,8S6603,8
2018-09-23 14:00:0033,629,51015,209,3S18,8S6794,1
2018-09-23 13:00:0033,228,61015,8011,4S19,8SE6483,8
2018-09-23 12:00:0033,327,71016,108,8S19,1S5732,9
2018-09-23 11:00:0029,742,11016,204,2SE7,6SE4491,7
2018-09-23 10:00:0024,059,11016,102,1E5,6SE2980,7
2018-09-23 09:00:0019,971,81015,802,1E5,1N1430,1
2018-09-23 08:00:0018,574,91015,401,1NE4,7N140
2018-09-23 07:00:0018,774,71015,202,0NE4,3E-10
2018-09-23 06:00:0019,073,61014,802,4NE4,2N-10
2018-09-23 05:00:0019,972,01014,801,4NE4,6N-10
2018-09-23 04:00:0020,868,81014,902,7E11,8E-10
2018-09-23 03:00:0021,664,61015,204,8E9,8SE-10
2018-09-23 02:00:0021,463,11015,404,2E8,6E00
2018-09-23 01:00:0021,366,61015,502,8E6,6E-10
2018-09-23 00:00:0021,962,01015,502,6NE5,8E-10
2018-09-22 23:00:0022,865,91015,603,6NE6,6N-10
2018-09-22 22:00:0023,664,11015,002,2SE4,8S00
2018-09-22 21:00:0024,756,51014,103,1SW6,9W00
2018-09-22 20:00:0026,250,21013,602,8SW11,0SW70
2018-09-22 19:00:0027,645,71013,302,7W11,9SW240,1
2018-09-22 18:00:0029,043,71013,306,3SW20,3S1460,5
2018-09-22 17:00:0031,140,11013,807,7SW14,2SW4641,6
2018-09-22 16:00:0032,436,71014,2011,8S20,0S5972,9
2018-09-22 15:00:0032,934,81014,708,8S16,6S6813,9
2018-09-22 14:00:0033,333,21015,2010,2S17,3S6984,2
2018-09-22 13:00:0032,732,91015,5010,1S19,0S6613,8
2018-09-22 12:00:0032,235,21015,909,0S19,5S5752,9
2018-09-22 11:00:0030,138,71015,807,2E12,8E4461,7
2018-09-22 10:00:0025,352,71015,204,4E9,0SE2940,7
2018-09-22 09:00:0021,764,11015,104,0E8,6NE1370,1
2018-09-22 08:00:0019,573,21014,605,0E8,2E140
2018-09-22 07:00:0020,169,21014,102,8E6,5NE-10
2018-09-22 06:00:0020,767,71014,004,1NE9,6NE-10
2018-09-22 05:00:0020,768,01013,603,7E7,3E-10
2018-09-22 04:00:0022,162,41013,403,5E7,8E-10
2018-09-22 03:00:0023,657,51013,606,7E15,1NE-10
2018-09-22 02:00:0024,853,31013,807,7NE15,4NE00
2018-09-22 01:00:0025,850,51013,9012,0NE23,2NE-10
2018-09-22 00:00:0025,253,51013,909,4NE20,3NE00
2018-09-21 23:00:0023,859,91013,505,7N16,1N-10
2018-09-21 22:00:0024,758,21013,107,6N13,6N-10
2018-09-21 21:00:0025,162,61012,605,1N9,7NE00
2018-09-21 20:00:0026,654,11011,903,2SE10,7SW50
2018-09-21 19:00:0028,051,81011,506,7SW15,7SW240,1
2018-09-21 18:00:0028,352,31011,4011,7S22,5SW1460,5
2018-09-21 17:00:0030,136,51011,9011,9SW21,1SW4641,6
2018-09-21 16:00:0030,739,11012,3012,3SW23,4SW5842,9
2018-09-21 15:00:0030,742,61012,9010,7SW18,9SW6613,8
2018-09-21 14:00:0031,437,61013,709,6S17,1S6834,1
2018-09-21 13:00:0031,035,01014,707,4SE16,9S6523,8
2018-09-21 12:00:0028,941,11015,009,5E18,7E5772,9
2018-09-21 11:00:0026,549,41014,908,2E20,1E4541,7
2018-09-21 10:00:0023,058,01014,604,3NE13,9N3010,7
2018-09-21 09:00:0020,069,61014,403,1NE7,2NE1430,1
2018-09-21 08:00:0019,570,71013,804,2NE11,3E140
2018-09-21 07:00:0019,867,01013,406,4E14,7E-10
2018-09-21 06:00:0018,964,71013,102,7SE9,6NW-10
2018-09-21 05:00:0020,854,71012,804,7N11,4NE00
2018-09-21 04:00:0020,655,51013,004,8NE13,4NE00
2018-09-21 03:00:0020,658,21013,203,1N9,9NE-10
2018-09-21 02:00:0020,461,51013,603,2E11,7NE-10
2018-09-21 01:00:0020,759,21013,301,8E5,7NE-10
2018-09-21 00:00:0021,155,61012,902,2N5,6NW00
2018-09-20 23:00:0022,050,61012,704,2NW10,6NW00
2018-09-20 22:00:0022,946,81012,405,2NW14,1NW-10
2018-09-20 21:00:0024,542,61011,805,2NW11,8NW-10
2018-09-20 20:00:0026,634,31011,409,8NW19,1NW60
2018-09-20 19:00:0028,140,51011,309,5NW24,0NW300,1
2018-09-20 18:00:0029,249,61011,407,8W19,3W1600,5
2018-09-20 17:00:0029,154,91012,0010,8SW21,0SW4581,6
2018-09-20 16:00:0029,755,71012,809,7SW19,9W5762,8
2018-09-20 15:00:0029,559,71013,5011,5SW21,7SW6573,6
2018-09-20 14:00:0029,459,81014,2011,3SW23,0S6824,0
2018-09-20 13:00:0028,762,01014,9010,6S19,6SW6413,6
2018-09-20 12:00:0028,459,01015,208,3S15,4SW5702,8
2018-09-20 11:00:0027,555,81015,207,6S20,7S4501,7
2018-09-20 10:00:0024,157,41015,004,7E8,0NE2990,7
2018-09-20 09:00:0020,965,21014,804,3E9,9E1410,1
2018-09-20 08:00:0019,668,71014,203,1E6,5E170
2018-09-20 07:00:0019,967,31014,003,8E10,1E-10
2018-09-20 06:00:0020,663,91013,803,7NE11,1E-10
2018-09-20 05:00:0021,063,91013,607,0E12,9SE00
2018-09-20 04:00:0019,568,41013,402,5E12,8SE00
2018-09-20 03:00:0019,870,11013,302,6N5,6N-10
2018-09-20 02:00:0020,468,71013,701,2NE5,0E-10
2018-09-20 01:00:0021,162,81013,902,0N8,2N-10
2018-09-20 00:00:0021,768,41013,804,2NW9,2NW-10
2018-09-19 23:00:0022,468,51013,901,8N12,7NW-10
2018-09-19 22:00:0023,663,41013,602,9E10,1E-10
2018-09-19 21:00:0025,147,31012,704,6NE12,0NW-10
2018-09-19 20:00:0026,735,71012,207,9NW19,6NW60
2018-09-19 19:00:0026,555,81012,406,6SW17,1S250,1
2018-09-19 18:00:0028,244,81012,2010,9S20,6S1700,6
2018-09-19 17:00:0030,140,61012,5011,2S21,4S4731,7
2018-09-19 16:00:0031,238,31013,1011,2S24,6S5812,9
2018-09-19 15:00:0032,434,51013,6010,8S21,1S6673,8
2018-09-19 14:00:0032,634,81014,0011,1SW22,7S6894,2
2018-09-19 13:00:0032,136,21014,609,8S19,6SW6553,8
2018-09-19 12:00:0031,736,11014,907,2S17,2S5762,9
2018-09-19 11:00:0029,043,21014,803,8SE7,9S4561,7
2018-09-19 10:00:0025,152,31014,502,8E8,1S2930,7
2018-09-19 09:00:0020,759,81014,003,2N7,1N1440,1
2018-09-19 08:00:0018,262,11013,603,9NW7,4NW180
2018-09-19 07:00:0017,863,51013,203,9NW8,3NW00
2018-09-19 06:00:0017,963,81013,002,8NW6,0NW00
2018-09-19 05:00:0018,663,81012,703,0NW8,5NW00
2018-09-19 04:00:0018,960,21012,900,9NE4,6NE-10
2018-09-19 03:00:0019,458,41012,901,6W7,7NW-10
2018-09-19 02:00:0020,155,41012,801,3NW3,9NW-10
2018-09-19 01:00:0020,755,71012,702,6NW11,9NW-10
2018-09-19 00:00:0020,950,41012,402,9NW6,3NW00
2018-09-18 23:00:0021,846,61012,203,7NW6,9NW-10
2018-09-18 22:00:0023,242,41011,704,8NW14,4NW00
2018-09-18 21:00:0024,839,11010,908,1NW17,4NW-10
2018-09-18 20:00:0026,636,01010,1011,7NW24,8NW50
2018-09-18 19:00:0028,832,81009,9010,7NW23,0NW240,1
2018-09-18 18:00:0031,130,01010,0012,4NW27,5NW1940,6
2018-09-18 17:00:0034,127,31010,4010,4W23,3W4641,7
2018-09-18 16:00:0033,233,71010,6011,4SW21,5SW5942,9
2018-09-18 15:00:0031,144,71011,1012,3SW22,8SW6763,9
2018-09-18 14:00:0030,147,61011,5013,3SW25,8S6964,2
2018-09-18 13:00:0029,948,11011,909,4SW16,9SW6613,8
2018-09-18 12:00:0030,048,41012,208,6SW17,3SW5792,8
2018-09-18 11:00:0028,546,51012,203,0W15,8W4561,7
2018-09-18 10:00:0023,952,31012,302,5E6,2NE3010,7
2018-09-18 09:00:0019,966,71012,102,4NE5,1NE1450,1
2018-09-18 08:00:0018,076,91011,601,8NE4,8NE170
2018-09-18 07:00:0018,075,81011,002,6E5,1E-10
2018-09-18 06:00:0018,474,71010,602,1NE6,5E-10
2018-09-18 05:00:0018,975,71010,402,5NE5,8E-10
2018-09-18 04:00:0019,874,01010,403,6E7,8E-10
2018-09-18 03:00:0020,383,41010,403,2NE9,2E00
2018-09-18 02:00:0020,984,31010,402,1NE6,9E-10
2018-09-18 01:00:0021,881,51010,403,3NE6,3E-10
2018-09-18 00:00:0022,678,81010,203,5NE7,6N-10
2018-09-17 23:00:0022,777,51010,004,0N7,9N-10
2018-09-17 22:00:0023,475,01009,705,8NW21,5NW00
2018-09-17 21:00:0024,072,51009,305,4W13,5NW-10
2018-09-17 20:00:0025,569,51008,806,0W14,8W110
2018-09-17 19:00:0026,867,41008,606,5SW13,7SW440,1
2018-09-17 18:00:0028,262,41009,006,8SW15,1W1980,6
2018-09-17 17:00:0030,256,21009,307,9S15,9S4441,6
2018-09-17 16:00:0030,555,01009,709,1S20,3S5812,9
2018-09-17 15:00:0030,853,61010,3010,5S20,9S6663,8
2018-09-17 14:00:0030,355,31010,909,4S18,8S6864,2
2018-09-17 13:00:0029,857,01011,609,9S21,7S6513,8
2018-09-17 12:00:0029,259,11012,009,5S17,4S5772,9
2018-09-17 11:00:0028,262,21012,007,4S19,8S4521,7
2018-09-17 10:00:0025,372,11011,903,1E12,9SE2990,7
2018-09-17 09:00:0022,279,41011,802,3E8,1SE1420,1
2018-09-17 08:00:0019,983,51011,403,9N8,6NW180,0
2018-09-17 07:00:0019,781,91011,403,9N7,2NE-10
2018-09-17 06:00:0019,781,81011,602,8NE6,1E-10
2018-09-17 05:00:0020,180,91011,702,4NE6,1N-10
2018-09-17 04:00:0020,182,41011,602,6E10,8E-10
2018-09-17 03:00:0020,981,71011,701,9SE5,2SE00
2018-09-17 02:00:0021,477,21011,802,5E5,8SE-10
2018-09-17 01:00:0021,771,91011,902,6N7,2N-10
2018-09-17 00:00:0022,470,11012,002,0NW5,8NW00
2018-09-16 23:00:0023,269,21012,203,2NW9,1NW-10
2018-09-16 22:00:0023,670,31012,003,6NW10,2NW00
2018-09-16 21:00:0023,969,41011,702,0W8,2N-10
2018-09-16 20:00:0025,363,21011,504,1SW10,2SW220
2018-09-16 19:00:0026,758,81011,505,7SW12,1SW590,1
2018-09-16 18:00:0027,956,71011,509,0SW17,3SW2510,6
2018-09-16 17:00:0029,950,81011,808,8S16,3S4731,7
2018-09-16 16:00:0030,251,31012,4010,5S22,2SW5832,9
2018-09-16 15:00:0029,854,61013,1011,4S22,4S6613,8
2018-09-16 14:00:0029,256,51013,9012,7S31,8S6844,2
2018-09-16 13:00:0028,958,01014,6011,5S22,1SE6533,7
2018-09-16 12:00:0028,160,21015,0010,2S22,2S5742,8
2018-09-16 11:00:0027,259,71015,308,2SE19,7S4491,7
2018-09-16 10:00:0023,761,91015,103,4E8,5E2960,7
2018-09-16 09:00:0020,170,61015,001,9E6,2E1410,1
2018-09-16 08:00:0018,075,31014,702,2E4,8E180
2018-09-16 07:00:0018,274,91014,202,2NE6,1NE-10
2018-09-16 06:00:0018,873,21014,103,3NE11,2NE-10
2018-09-16 05:00:0018,775,71013,702,8NE11,1E-10
2018-09-16 04:00:0018,974,51013,503,5N7,4NW-10
2018-09-16 03:00:0019,870,41013,805,2N10,3N00
2018-09-16 02:00:0020,469,31014,104,4SE16,6SE-10
2018-09-16 01:00:0020,467,01013,902,3NW5,3NW00
2018-09-16 00:00:0021,262,81013,903,0NW7,3W00
2018-09-15 23:00:0022,159,31013,402,5W7,4W00
2018-09-15 22:00:0023,057,61012,802,9NW9,2N00
2018-09-15 21:00:0024,056,11012,104,7NW14,2NW-10
2018-09-15 20:00:0025,655,11011,5010,4NW22,2NW80
2018-09-15 19:00:0028,744,01011,1010,0NW22,6NW400,1
2018-09-15 18:00:0028,953,61011,109,2SW20,0NW2750,6
2018-09-15 17:00:0028,854,21011,6010,9SW22,7SW4491,6
2018-09-15 16:00:0029,351,11012,1011,8SW21,6S6002,9
2018-09-15 15:00:0028,853,41012,8011,4SW20,3SW6793,9
2018-09-15 14:00:0028,853,31013,509,5SW15,9S6283,9
2018-09-15 13:00:0028,552,91014,207,9S16,9S6373,7
2018-09-15 12:00:0025,761,71014,402,8E10,0SE3622,0
2018-09-15 11:00:0023,173,31014,602,8E8,1E1590,7
2018-09-15 10:00:0021,481,51014,504,0E9,0E850,2
2018-09-15 09:00:0020,986,81014,003,1E9,6NE450,0
2018-09-15 08:00:0020,385,91013,202,5E7,8NE40
2018-09-15 07:00:0020,284,21012,602,0NE8,2E-10
2018-09-15 06:00:0019,982,11012,003,2N8,4W-10
2018-09-15 05:00:0020,580,31011,604,8W17,1W00
2018-09-15 04:00:0020,775,31012,403,2NW7,5N00
2018-09-15 03:00:0020,676,91012,702,7NW12,4NW00
2018-09-15 02:00:0021,073,51013,602,5E5,5NE-10
2018-09-15 01:00:0021,971,11014,304,9E12,1E-10
2018-09-15 00:00:0021,660,61014,403,6E9,0E-10